Wetterdaten: Sonntag, 10.04.2022
Datum Zeit Temp. Aussen Temp. o. S. Temp +5cm Feuchte Auss Luftdruck Regen Sonnenschein Regendauer Solar Windben Empfang
10.04.2022 00:00 3,8 C 2,8 C 0,0 C 83 % 1017,6 hPa 0,0 l/m 0 min 0 min 0 W/m 16,1 km/h (3 Bft) 100,00 %
10.04.2022 00:02 3,8 C 2,8 C 0,0 C 83 % 1017,7 hPa 0,0 l/m 0 min 0 min 0 W/m 9,7 km/h (2 Bft) 95,24 %
10.04.2022 00:04 3,8 C 2,8 C 0,0 C 83 % 1017,8 hPa 0,0 l/m 0 min 0 min 0 W/m 6,4 km/h (2 Bft) 100,00 %
10.04.2022 00:08 3,8 C 2,8 C 0,0 C 83 % 1017,8 hPa 0,0 l/m 0 min 0 min 0 W/m 6,4 km/h (2 Bft) 97,87 %
10.04.2022 00:10 3,7 C 2,8 C 0,0 C 83 % 1017,8 hPa 0,0 l/m 0 min 0 min 0 W/m 6,4 km/h (2 Bft) 100,00 %
10.04.2022 00:12 3,7 C 2,8 C 0,0 C 83 % 1017,8 hPa 0,0 l/m 0 min 0 min 0 W/m 3,2 km/h (1 Bft) 97,87 %
10.04.2022 00:14 3,7 C 2,8 C 0,0 C 84 % 1017,8 hPa 0,0 l/m 0 min 0 min 0 W/m 6,4 km/h (2 Bft) 97,87 %
10.04.2022 00:16 3,7 C 2,8 C 0,0 C 84 % 1017,8 hPa 0,0 l/m 0 min 0 min 0 W/m 12,9 km/h (3 Bft) 97,83 %
10.04.2022 00:18 3,7 C 2,8 C 0,0 C 84 % 1017,8 hPa 0,0 l/m 0 min 0 min 0 W/m 3,2 km/h (1 Bft) 97,87 %
10.04.2022 00:20 3,6 C 2,8 C 0,0 C 84 % 1017,9 hPa 0,0 l/m 0 min 0 min 0 W/m 12,9 km/h (3 Bft) 97,87 %
10.04.2022 00:22 3,6 C 2,8 C 0,0 C 84 % 1017,8 hPa 0,0 l/m 0 min 0 min 0 W/m 6,4 km/h (2 Bft) 97,87 %
10.04.2022 00:24 3,6 C 2,8 C -0,6 C 84 % 1017,9 hPa 0,0 l/m 0 min 0 min 0 W/m 6,4 km/h (2 Bft) 97,87 %
10.04.2022 00:26 3,6 C 2,8 C 0,0 C 84 % 1017,9 hPa 0,0 l/m 0 min 0 min 0 W/m 6,4 km/h (2 Bft) 97,87 %
10.04.2022 00:28 3,6 C 2,8 C 0,0 C 84 % 1017,9 hPa 0,0 l/m 0 min 0 min 0 W/m 3,2 km/h (1 Bft) 97,83 %
10.04.2022 00:30 3,6 C 2,8 C -0,6 C 84 % 1017,9 hPa 0,0 l/m 0 min 0 min 0 W/m 3,2 km/h (1 Bft) 93,62 %
10.04.2022 00:32 3,5 C 2,8 C -0,6 C 84 % 1017,9 hPa 0,0 l/m 0 min 0 min 0 W/m 3,2 km/h (1 Bft) 95,74 %
10.04.2022 00:34 3,5 C 2,2 C -0,6 C 84 % 1017,9 hPa 0,0 l/m 0 min 0 min 0 W/m 3,2 km/h (1 Bft) 95,74 %
10.04.2022 00:36 3,4 C 2,2 C -0,6 C 84 % 1017,9 hPa 0,0 l/m 0 min 0 min 0 W/m 6,4 km/h (2 Bft) 97,87 %
10.04.2022 00:38 3,4 C 2,2 C -0,6 C 84 % 1017,9 hPa 0,0 l/m 0 min 0 min 0 W/m 6,4 km/h (2 Bft) 97,83 %
10.04.2022 00:40 3,3 C 2,2 C -0,6 C 84 % 1017,9 hPa 0,0 l/m 0 min 0 min 0 W/m 3,2 km/h (1 Bft) 97,87 %
10.04.2022 00:42 3,3 C 2,2 C -0,6 C 84 % 1018,0 hPa 0,0 l/m 0 min 0 min 0 W/m 6,4 km/h (2 Bft) 95,74 %
10.04.2022 00:44 3,3 C 2,2 C -0,6 C 84 % 1018,0 hPa 0,0 l/m 0 min 0 min 0 W/m 3,2 km/h (1 Bft) 93,62 %
10.04.2022 00:46 3,2 C 2,2 C -0,6 C 85 % 1018,0 hPa 0,0 l/m 0 min 0 min 0 W/m 6,4 km/h (2 Bft) 97,87 %
10.04.2022 00:48 3,2 C 2,2 C -0,6 C 85 % 1018,0 hPa 0,0 l/m 0 min 0 min 0 W/m 6,4 km/h (2 Bft) 97,87 %
10.04.2022 00:50 3,2 C 2,2 C -0,6 C 85 % 1018,0 hPa 0,0 l/m 0 min 0 min 0 W/m 6,4 km/h (2 Bft) 97,83 %
10.04.2022 00:52 3,2 C 2,2 C -0,6 C 85 % 1018,1 hPa 0,0 l/m 0 min 0 min 0 W/m 6,4 km/h (2 Bft) 95,74 %
10.04.2022 00:54 3,2 C 2,2 C -0,6 C 85 % 1018,1 hPa 0,0 l/m 0 min 0 min 0 W/m 6,4 km/h (2 Bft) 95,74 %
10.04.2022 00:56 3,1 C 2,2 C -0,6 C 85 % 1018,1 hPa 0,0 l/m 0 min 0 min 0 W/m 6,4 km/h (2 Bft) 95,74 %
10.04.2022 00:58 3,1 C 2,2 C -0,6 C 85 % 1018,1 hPa 0,0 l/m 0 min 0 min 0 W/m 6,4 km/h (2 Bft) 97,87 %
10.04.2022 01:00 3,1 C 2,2 C -0,6 C 86 % 1018,1 hPa 0,0 l/m 0 min 0 min 0 W/m 3,2 km/h (1 Bft) 97,87 %
10.04.2022 01:02 3,1 C 2,2 C -0,6 C 86 % 1018,1 hPa 0,0 l/m 0 min 0 min 0 W/m 3,2 km/h (1 Bft) 97,83 %
10.04.2022 01:04 3,1 C 2,2 C -0,6 C 86 % 1018,1 hPa 0,0 l/m 0 min 0 min 0 W/m 6,4 km/h (2 Bft) 97,87 %
10.04.2022 01:06 3,0 C 2,2 C -0,6 C 86 % 1018,0 hPa 0,0 l/m 0 min 0 min 0 W/m 3,2 km/h (1 Bft) 97,87 %
10.04.2022 01:08 3,0 C 2,2 C -0,6 C 86 % 1018,0 hPa 0,0 l/m 0 min 0 min 0 W/m 3,2 km/h (1 Bft) 100,00 %
10.04.2022 01:10 2,9 C 2,2 C -0,6 C 86 % 1018,1 hPa 0,0 l/m 0 min 0 min 0 W/m 6,4 km/h (2 Bft) 97,87 %
10.04.2022 01:12 2,9 C 2,2 C -0,6 C 86 % 1018,2 hPa 0,0 l/m 0 min 0 min 0 W/m 3,2 km/h (1 Bft) 97,87 %
10.04.2022 01:14 2,9 C 2,2 C -0,6 C 86 % 1018,2 hPa 0,0 l/m 0 min 0 min 0 W/m 3,2 km/h (1 Bft) 95,65 %
10.04.2022 01:16 2,9 C 1,7 C -1,1 C 86 % 1018,2 hPa 0,0 l/m 0 min 0 min 0 W/m 6,4 km/h (2 Bft) 97,87 %
10.04.2022 01:18 2,8 C 1,7 C -1,1 C 86 % 1018,2 hPa 0,0 l/m 0 min 0 min 0 W/m 9,7 km/h (2 Bft) 97,87 %
10.04.2022 01:20 2,8 C 2,2 C -1,1 C 87 % 1018,3 hPa 0,0 l/m 0 min 0 min 0 W/m 6,4 km/h (2 Bft) 100,00 %
10.04.2022 01:22 2,8 C 2,2 C -0,6 C 87 % 1018,3 hPa 0,0 l/m 0 min 0 min 0 W/m 6,4 km/h (2 Bft) 100,00 %
10.04.2022 01:24 2,8 C 2,2 C -0,6 C 87 % 1018,3 hPa 0,0 l/m 0 min 0 min 0 W/m 12,9 km/h (3 Bft) 100,00 %
10.04.2022 01:26 2,8 C 2,2 C -0,6 C 87 % 1018,4 hPa 0,0 l/m 0 min 0 min 0 W/m 3,2 km/h (1 Bft) 100,00 %
10.04.2022 01:28 2,8 C 2,2 C -1,1 C 87 % 1018,3 hPa 0,0 l/m 0 min 0 min 0 W/m 6,4 km/h (2 Bft) 95,74 %
10.04.2022 01:30 2,8 C 2,2 C -1,1 C 87 % 1018,3 hPa 0,0 l/m 0 min 0 min 0 W/m 3,2 km/h (1 Bft) 97,87 %
10.04.2022 01:32 2,8 C 2,2 C -1,1 C 87 % 1018,4 hPa 0,0 l/m 0 min 0 min 0 W/m 3,2 km/h (1 Bft) 97,87 %
10.04.2022 01:34 2,7 C 2,2 C -1,1 C 87 % 1018,4 hPa 0,0 l/m 0 min 0 min 0 W/m 6,4 km/h (2 Bft) 97,87 %
10.04.2022 01:36 2,8 C 2,2 C -1,1 C 87 % 1018,4 hPa 0,0 l/m 0 min 0 min 0 W/m 6,4 km/h (2 Bft) 95,74 %
10.04.2022 01:38 2,7 C 2,2 C -1,1 C 87 % 1018,4 hPa 0,0 l/m 0 min 0 min 0 W/m 6,4 km/h (2 Bft) 95,65 %
10.04.2022 01:40 2,7 C 1,7 C -1,1 C 87 % 1018,4 hPa 0,0 l/m 0 min 0 min 0 W/m 6,4 km/h (2 Bft) 95,74 %
10.04.2022 01:42 2,7 C 1,7 C -1,1 C 87 % 1018,3 hPa 0,0 l/m 0 min 0 min 0 W/m 6,4 km/h (2 Bft) 97,87 %
10.04.2022 01:44 2,7 C 1,7 C -1,1 C 87 % 1018,4 hPa 0,0 l/m 0 min 0 min 0 W/m 0,0 km/h (0 Bft) 97,87 %
10.04.2022 01:46 2,7 C 1,7 C -1,1 C 87 % 1018,4 hPa 0,0 l/m 0 min 0 min 0 W/m 9,7 km/h (2 Bft) 93,62 %
10.04.2022 01:48 2,7 C 1,7 C -1,1 C 87 % 1018,4 hPa 0,0 l/m 0 min 0 min 0 W/m 9,7 km/h (2 Bft) 97,87 %
10.04.2022 01:50 2,6 C 1,7 C -1,1 C 87 % 1018,4 hPa 0,0 l/m 0 min 0 min 0 W/m 3,2 km/h (1 Bft) 97,83 %
10.04.2022 01:52 2,6 C 1,7 C -1,1 C 87 % 1018,4 hPa 0,0 l/m 0 min 0 min 0 W/m 6,4 km/h (2 Bft) 95,74 %
10.04.2022 01:54 2,6 C 1,7 C -1,1 C 88 % 1018,4 hPa 0,0 l/m 0 min 0 min 0 W/m 6,4 km/h (2 Bft) 95,74 %
10.04.2022 01:56 2,6 C 1,7 C -1,1 C 88 % 1018,4 hPa 0,0 l/m 0 min 0 min 0 W/m 12,9 km/h (3 Bft) 95,74 %
10.04.2022 01:58 2,6 C 1,7 C -1,1 C 88 % 1018,5 hPa 0,0 l/m 0 min 0 min 0 W/m 6,4 km/h (2 Bft) 94,00 %
10.04.2022 02:00 2,6 C 1,7 C -1,1 C 88 % 1018,5 hPa 0,0 l/m 0 min 0 min 0 W/m 6,4 km/h (2 Bft) 95,65 %
10.04.2022 02:02 2,6 C 1,7 C -1,1 C 88 % 1018,5 hPa 0,0 l/m 0 min 0 min 0 W/m 6,4 km/h (2 Bft) 91,84 %
10.04.2022 02:04 2,6 C 1,7 C -1,1 C 88 % 1018,5 hPa 0,0 l/m 0 min 0 min 0 W/m 3,2 km/h (1 Bft) 100,00 %
10.04.2022 02:06 2,6 C 1,7 C -1,1 C 88 % 1018,5 hPa 0,0 l/m 0 min 0 min 0 W/m 6,4 km/h (2 Bft) 93,62 %
10.04.2022 02:08 2,6 C 1,7 C -1,1 C 88 % 1018,6 hPa 0,0 l/m 0 min 0 min 0 W/m 6,4 km/h (2 Bft) 93,62 %
10.04.2022 02:10 2,6 C 1,7 C -1,1 C 88 % 1018,5 hPa 0,0 l/m 0 min 0 min 0 W/m 6,4 km/h (2 Bft) 95,74 %
10.04.2022 02:12 2,6 C 1,7 C -1,1 C 88 % 1018,6 hPa 0,0 l/m 0 min 0 min 0 W/m 6,4 km/h (2 Bft) 96,30 %
10.04.2022 02:14 2,6 C 1,7 C -1,1 C 88 % 1018,6 hPa 0,0 l/m 0 min 0 min 0 W/m 6,4 km/h (2 Bft) 96,00 %
10.04.2022 02:16 2,6 C 1,7 C -1,1 C 88 % 1018,6 hPa 0,0 l/m 0 min 0 min 0 W/m 3,2 km/h (1 Bft) 95,74 %
10.04.2022 02:18 2,6 C 1,7 C -1,1 C 88 % 1018,6 hPa 0,0 l/m 0 min 0 min 0 W/m 6,4 km/h (2 Bft) 94,44 %
10.04.2022 02:20 2,6 C 1,7 C -1,1 C 88 % 1018,6 hPa 0,0 l/m 0 min 0 min 0 W/m 3,2 km/h (1 Bft) 97,87 %
10.04.2022 02:22 2,6 C 1,7 C -1,1 C 88 % 1018,6 hPa 0,0 l/m 0 min 0 min 0 W/m 3,2 km/h (1 Bft) 95,74 %
10.04.2022 02:24 2,6 C 1,7 C -1,1 C 88 % 1018,6 hPa 0,0 l/m 0 min 0 min 0 W/m 3,2 km/h (1 Bft) 95,74 %
10.04.2022 02:26 2,6 C 1,7 C -1,1 C 88 % 1018,5 hPa 0,0 l/m 0 min 0 min 0 W/m 3,2 km/h (1 Bft) 98,15 %
10.04.2022 02:28 2,5 C 1,7 C -1,1 C 88 % 1018,5 hPa 0,0 l/m 0 min 0 min 0 W/m 6,4 km/h (2 Bft) 98,00 %
10.04.2022 02:30 2,6 C 1,7 C -1,1 C 88 % 1018,6 hPa 0,0 l/m 0 min 0 min 0 W/m 6,4 km/h (2 Bft) 70,21 %
10.04.2022 02:32 2,6 C 1,7 C -1,1 C 88 % 1018,6 hPa 0,0 l/m 0 min 0 min 0 W/m 6,4 km/h (2 Bft) 85,11 %
10.04.2022 02:34 2,6 C 1,7 C -1,1 C 88 % 1018,5 hPa 0,0 l/m 0 min 0 min 0 W/m 9,7 km/h (2 Bft) 100,00 %
10.04.2022 02:36 2,6 C 1,7 C -1,1 C 88 % 1018,6 hPa 0,0 l/m 0 min 0 min 0 W/m 3,2 km/h (1 Bft) 100,00 %
10.04.2022 02:38 2,6 C 1,7 C -1,1 C 88 % 1018,6 hPa 0,0 l/m 0 min 0 min 0 W/m 6,4 km/h (2 Bft) 97,83 %
10.04.2022 02:40 2,6 C 2,2 C -1,1 C 88 % 1018,6 hPa 0,0 l/m 0 min 0 min 0 W/m 6,4 km/h (2 Bft) 97,87 %
10.04.2022 02:42 2,6 C 2,2 C -1,1 C 88 % 1018,5 hPa 0,0 l/m 0 min 0 min 0 W/m 6,4 km/h (2 Bft) 100,00 %
10.04.2022 02:44 2,6 C 2,2 C -1,1 C 88 % 1018,5 hPa 0,0 l/m 0 min 0 min 0 W/m 12,9 km/h (3 Bft) 100,00 %
10.04.2022 02:46 2,6 C 2,2 C -1,1 C 88 % 1018,5 hPa 0,0 l/m 0 min 0 min 0 W/m 6,4 km/h (2 Bft) 97,96 %
10.04.2022 02:48 2,6 C 1,7 C -1,1 C 88 % 1018,6 hPa 0,0 l/m 0 min 0 min 0 W/m 6,4 km/h (2 Bft) 95,74 %
10.04.2022 02:50 2,6 C 1,7 C -1,1 C 88 % 1018,6 hPa 0,0 l/m 0 min 0 min 0 W/m 6,4 km/h (2 Bft) 100,00 %
10.04.2022 02:52 2,6 C 2,2 C -1,1 C 88 % 1018,6 hPa 0,0 l/m 0 min 0 min 0 W/m 6,4 km/h (2 Bft) 97,87 %
10.04.2022 02:54 2,6 C 2,2 C -1,1 C 88 % 1018,6 hPa 0,0 l/m 0 min 0 min 0 W/m 3,2 km/h (1 Bft) 97,87 %
10.04.2022 02:56 2,6 C 1,7 C -1,1 C 88 % 1018,6 hPa 0,0 l/m 0 min 0 min 0 W/m 6,4 km/h (2 Bft) 97,87 %
10.04.2022 02:58 2,6 C 1,7 C -1,1 C 88 % 1018,6 hPa 0,0 l/m 0 min 0 min 0 W/m 3,2 km/h (1 Bft) 97,87 %
10.04.2022 03:00 2,6 C 1,7 C -1,1 C 88 % 1018,6 hPa 0,0 l/m 0 min 0 min 0 W/m 3,2 km/h (1 Bft) 97,87 %
10.04.2022 03:02 2,6 C 1,7 C -1,1 C 88 % 1018,6 hPa 0,0 l/m 0 min 0 min 0 W/m 6,4 km/h (2 Bft) 95,74 %
10.04.2022 03:04 2,6 C 1,7 C -1,1 C 88 % 1018,6 hPa 0,0 l/m 0 min 0 min 0 W/m 6,4 km/h (2 Bft) 97,87 %
10.04.2022 03:06 2,6 C 1,7 C -1,1 C 88 % 1018,7 hPa 0,0 l/m 0 min 0 min 0 W/m 6,4 km/h (2 Bft) 97,87 %
10.04.2022 03:08 2,6 C 1,7 C -1,1 C 88 % 1018,7 hPa 0,0 l/m 0 min 0 min 0 W/m 6,4 km/h (2 Bft) 97,87 %
10.04.2022 03:10 2,6 C 1,7 C -1,1 C 87 % 1018,7 hPa 0,0 l/m 0 min 0 min 0 W/m 9,7 km/h (2 Bft) 95,74 %
10.04.2022 03:12 2,6 C 1,7 C -1,1 C 87 % 1018,7 hPa 0,0 l/m 0 min 0 min 0 W/m 3,2 km/h (1 Bft) 98,15 %
10.04.2022 03:14 2,6 C 1,7 C -1,1 C 87 % 1018,6 hPa 0,0 l/m 0 min 0 min 0 W/m 3,2 km/h (1 Bft) 95,74 %
10.04.2022 03:16 2,6 C 1,7 C -1,1 C 87 % 1018,6 hPa 0,0 l/m 0 min 0 min 0 W/m 3,2 km/h (1 Bft) 97,37 %
10.04.2022 03:18 2,5 C 1,7 C -1,1 C 87 % 1018,6 hPa 0,0 l/m 0 min 0 min 0 W/m 3,2 km/h (1 Bft) 98,25 %
10.04.2022 03:20 2,5 C 1,7 C -1,1 C 87 % 1018,5 hPa 0,0 l/m 0 min 0 min 0 W/m 6,4 km/h (2 Bft) 95,65 %
10.04.2022 03:22 2,5 C 1,7 C -1,1 C 87 % 1018,6 hPa 0,0 l/m 0 min 0 min 0 W/m 3,2 km/h (1 Bft) 97,87 %
10.04.2022 03:24 2,5 C 1,7 C -1,1 C 87 % 1018,6 hPa 0,0 l/m 0 min 0 min 0 W/m 3,2 km/h (1 Bft) 97,87 %
10.04.2022 03:26 2,5 C 1,7 C -1,1 C 87 % 1018,6 hPa 0,0 l/m 0 min 0 min 0 W/m 3,2 km/h (1 Bft) 97,87 %
10.04.2022 03:28 2,5 C 1,7 C -1,1 C 87 % 1018,5 hPa 0,0 l/m 0 min 0 min 0 W/m 3,2 km/h (1 Bft) 97,87 %
10.04.2022 03:30 2,5 C 1,7 C -1,1 C 87 % 1018,5 hPa 0,0 l/m 0 min 0 min 0 W/m 3,2 km/h (1 Bft) 97,87 %
10.04.2022 03:32 2,4 C 1,7 C -1,1 C 87 % 1018,6 hPa 0,0 l/m 0 min 0 min 0 W/m 3,2 km/h (1 Bft) 97,83 %
10.04.2022 03:34 2,4 C 1,7 C -1,7 C 87 % 1018,6 hPa 0,0 l/m 0 min 0 min 0 W/m 3,2 km/h (1 Bft) 95,74 %
10.04.2022 03:36 2,4 C 1,1 C -1,7 C 87 % 1018,6 hPa 0,0 l/m 0 min 0 min 0 W/m 0,0 km/h (0 Bft) 97,87 %
10.04.2022 03:38 2,4 C 1,1 C -1,7 C 87 % 1018,6 hPa 0,0 l/m 0 min 0 min 0 W/m 0,0 km/h (0 Bft) 97,87 %
10.04.2022 03:40 2,4 C 1,1 C -1,7 C 87 % 1018,6 hPa 0,0 l/m 0 min 0 min 0 W/m 3,2 km/h (1 Bft) 97,87 %
10.04.2022 03:42 2,3 C 1,1 C -1,7 C 87 % 1018,6 hPa 0,0 l/m 0 min 0 min 0 W/m 3,2 km/h (1 Bft) 97,87 %
10.04.2022 03:44 2,3 C 1,1 C -1,7 C 87 % 1018,6 hPa 0,0 l/m 0 min 0 min 0 W/m 3,2 km/h (1 Bft) 97,83 %
10.04.2022 03:46 2,3 C 1,1 C -1,7 C 87 % 1018,6 hPa 0,0 l/m 0 min 0 min 0 W/m 3,2 km/h (1 Bft) 97,87 %
10.04.2022 03:48 2,3 C 1,1 C -1,7 C 87 % 1018,6 hPa 0,0 l/m 0 min 0 min 0 W/m 3,2 km/h (1 Bft) 97,87 %
10.04.2022 03:50 2,2 C 1,1 C -1,7 C 87 % 1018,6 hPa 0,0 l/m 0 min 0 min 0 W/m 3,2 km/h (1 Bft) 97,87 %
10.04.2022 03:52 2,2 C 1,1 C -1,7 C 87 % 1018,6 hPa 0,0 l/m 0 min 0 min 0 W/m 0,0 km/h (0 Bft) 95,74 %
10.04.2022 03:54 2,2 C 1,1 C -1,7 C 87 % 1018,6 hPa 0,0 l/m 0 min 0 min 0 W/m 3,2 km/h (1 Bft) 97,87 %
10.04.2022 03:56 2,1 C 1,1 C -1,7 C 87 % 1018,7 hPa 0,0 l/m 0 min 0 min 0 W/m 6,4 km/h (2 Bft) 97,83 %
10.04.2022 03:58 2,1 C 1,1 C -1,7 C 87 % 1018,7 hPa 0,0 l/m 0 min 0 min 0 W/m 3,2 km/h (1 Bft) 100,00 %
10.04.2022 04:00 2,1 C 1,1 C -1,7 C 87 % 1018,7 hPa 0,0 l/m 0 min 0 min 0 W/m 3,2 km/h (1 Bft) 100,00 %
10.04.2022 04:02 2,1 C 1,1 C -1,7 C 87 % 1018,6 hPa 0,0 l/m 0 min 0 min 0 W/m 3,2 km/h (1 Bft) 100,00 %
10.04.2022 04:04 2,1 C 1,1 C -1,7 C 88 % 1018,6 hPa 0,0 l/m 0 min 0 min 0 W/m 0,0 km/h (0 Bft) 100,00 %
10.04.2022 04:06 2,0 C 0,6 C -1,7 C 88 % 1018,7 hPa 0,0 l/m 0 min 0 min 0 W/m 3,2 km/h (1 Bft) 100,00 %
10.04.2022 04:08 2,0 C 1,1 C -2,2 C 88 % 1018,7 hPa 0,0 l/m 0 min 0 min 0 W/m 3,2 km/h (1 Bft) 100,00 %
10.04.2022 04:10 2,0 C 1,1 C -2,2 C 88 % 1018,7 hPa 0,0 l/m 0 min 0 min 0 W/m 3,2 km/h (1 Bft) 97,87 %
10.04.2022 04:12 1,9 C 1,1 C -2,2 C 88 % 1018,7 hPa 0,0 l/m 0 min 0 min 0 W/m 3,2 km/h (1 Bft) 97,87 %
10.04.2022 04:14 1,9 C 1,1 C -2,2 C 88 % 1018,7 hPa 0,0 l/m 0 min 0 min 0 W/m 0,0 km/h (0 Bft) 100,00 %
10.04.2022 04:16 1,9 C 1,1 C -2,2 C 88 % 1018,7 hPa 0,0 l/m 0 min 0 min 0 W/m 3,2 km/h (1 Bft) 100,00 %
10.04.2022 04:18 1,9 C 1,1 C -2,2 C 88 % 1018,7 hPa 0,0 l/m 0 min 0 min 0 W/m 3,2 km/h (1 Bft) 100,00 %
10.04.2022 04:20 1,9 C 1,1 C -2,2 C 88 % 1018,7 hPa 0,0 l/m 0 min 0 min 0 W/m 3,2 km/h (1 Bft) 100,00 %
10.04.2022 04:22 1,9 C 0,6 C -2,2 C 88 % 1018,8 hPa 0,0 l/m 0 min 0 min 0 W/m 3,2 km/h (1 Bft) 100,00 %
10.04.2022 04:24 1,9 C 0,6 C -2,2 C 88 % 1018,7 hPa 0,0 l/m 0 min 0 min 0 W/m 3,2 km/h (1 Bft) 100,00 %
10.04.2022 04:26 1,8 C 0,6 C -2,2 C 88 % 1018,8 hPa 0,0 l/m 0 min 0 min 0 W/m 0,0 km/h (0 Bft) 97,87 %
10.04.2022 04:28 1,8 C 0,6 C -2,2 C 88 % 1018,8 hPa 0,0 l/m 0 min 0 min 0 W/m 3,2 km/h (1 Bft) 97,87 %
10.04.2022 04:30 1,8 C 0,6 C -1,7 C 88 % 1018,8 hPa 0,0 l/m 0 min 0 min 0 W/m 3,2 km/h (1 Bft) 100,00 %
10.04.2022 04:32 1,8 C 0,6 C -1,7 C 88 % 1018,8 hPa 0,0 l/m 0 min 0 min 0 W/m 3,2 km/h (1 Bft) 100,00 %
10.04.2022 04:34 1,8 C 0,6 C -1,7 C 88 % 1018,8 hPa 0,0 l/m 0 min 0 min 0 W/m 3,2 km/h (1 Bft) 100,00 %
10.04.2022 04:36 1,8 C 0,6 C -1,7 C 88 % 1018,8 hPa 0,0 l/m 0 min 0 min 0 W/m 3,2 km/h (1 Bft) 100,00 %
10.04.2022 04:38 1,8 C 0,6 C -1,7 C 88 % 1018,8 hPa 0,0 l/m 0 min 0 min 0 W/m 3,2 km/h (1 Bft) 100,00 %
10.04.2022 04:40 1,8 C 1,1 C -1,7 C 88 % 1018,8 hPa 0,0 l/m 0 min 0 min 0 W/m 3,2 km/h (1 Bft) 100,00 %
10.04.2022 04:42 1,8 C 1,1 C -1,7 C 88 % 1018,9 hPa 0,0 l/m 0 min 0 min 0 W/m 3,2 km/h (1 Bft) 97,83 %
10.04.2022 04:44 1,8 C 1,1 C -1,7 C 89 % 1018,9 hPa 0,0 l/m 0 min 0 min 0 W/m 3,2 km/h (1 Bft) 97,87 %
10.04.2022 04:46 1,8 C 1,1 C -2,2 C 89 % 1018,9 hPa 0,0 l/m 0 min 0 min 0 W/m 3,2 km/h (1 Bft) 97,87 %
10.04.2022 04:48 1,8 C 1,1 C -2,2 C 89 % 1018,9 hPa 0,0 l/m 0 min 0 min 0 W/m 3,2 km/h (1 Bft) 97,87 %
10.04.2022 04:50 1,8 C 1,1 C -2,2 C 89 % 1018,9 hPa 0,0 l/m 0 min 0 min 0 W/m 0,0 km/h (0 Bft) 97,87 %
10.04.2022 04:52 1,8 C 1,1 C -2,2 C 89 % 1018,9 hPa 0,0 l/m 0 min 0 min 0 W/m 0,0 km/h (0 Bft) 100,00 %
10.04.2022 04:54 1,8 C 1,1 C -2,2 C 89 % 1019,0 hPa 0,0 l/m 0 min 0 min 0 W/m 3,2 km/h (1 Bft) 97,83 %
10.04.2022 04:56 1,8 C 1,1 C -2,2 C 89 % 1019,0 hPa 0,0 l/m 0 min 0 min 0 W/m 3,2 km/h (1 Bft) 97,87 %
10.04.2022 04:58 1,8 C 1,1 C -1,7 C 89 % 1019,0 hPa 0,0 l/m 0 min 0 min 0 W/m 3,2 km/h (1 Bft) 97,87 %
10.04.2022 05:00 1,8 C 1,1 C -1,7 C 89 % 1019,0 hPa 0,0 l/m 0 min 0 min 0 W/m 3,2 km/h (1 Bft) 97,87 %
10.04.2022 05:02 1,8 C 1,1 C -1,7 C 89 % 1019,0 hPa 0,0 l/m 0 min 0 min 0 W/m 3,2 km/h (1 Bft) 95,74 %
10.04.2022 05:04 1,8 C 1,1 C -1,7 C 89 % 1019,1 hPa 0,0 l/m 0 min 0 min 0 W/m 0,0 km/h (0 Bft) 97,87 %
10.04.2022 05:06 1,8 C 1,1 C -1,7 C 89 % 1019,0 hPa 0,0 l/m 0 min 0 min 0 W/m 3,2 km/h (1 Bft) 95,65 %
10.04.2022 05:08 1,8 C 1,1 C -1,7 C 89 % 1019,1 hPa 0,0 l/m 0 min 0 min 0 W/m 3,2 km/h (1 Bft) 95,74 %
10.04.2022 05:10 1,8 C 1,1 C -1,7 C 89 % 1019,1 hPa 0,0 l/m 0 min 0 min 0 W/m 3,2 km/h (1 Bft) 93,62 %
10.04.2022 05:12 1,8 C 1,1 C -1,7 C 89 % 1019,1 hPa 0,0 l/m 0 min 0 min 0 W/m 3,2 km/h (1 Bft) 95,74 %
10.04.2022 05:14 1,9 C 1,1 C -1,7 C 90 % 1019,1 hPa 0,0 l/m 0 min 0 min 0 W/m 3,2 km/h (1 Bft) 93,62 %
10.04.2022 05:16 1,8 C 1,1 C -1,7 C 90 % 1019,0 hPa 0,0 l/m 0 min 0 min 0 W/m 0,0 km/h (0 Bft) 93,48 %
10.04.2022 05:18 1,9 C 1,1 C -1,7 C 90 % 1019,1 hPa 0,0 l/m 0 min 0 min 0 W/m 3,2 km/h (1 Bft) 93,62 %
10.04.2022 05:20 1,9 C 1,1 C -1,7 C 90 % 1019,0 hPa 0,0 l/m 0 min 0 min 0 W/m 6,4 km/h (2 Bft) 93,62 %
10.04.2022 05:22 1,9 C 1,1 C -1,7 C 90 % 1019,1 hPa 0,0 l/m 0 min 0 min 0 W/m 3,2 km/h (1 Bft) 93,62 %
10.04.2022 05:24 1,9 C 1,1 C -1,7 C 90 % 1019,0 hPa 0,0 l/m 0 min 0 min 0 W/m 6,4 km/h (2 Bft) 91,49 %
10.04.2022 05:26 1,9 C 1,1 C -1,7 C 90 % 1019,0 hPa 0,0 l/m 0 min 0 min 0 W/m 3,2 km/h (1 Bft) 93,62 %
10.04.2022 05:28 1,9 C 1,1 C -1,7 C 90 % 1019,1 hPa 0,0 l/m 0 min 0 min 0 W/m 3,2 km/h (1 Bft) 95,65 %
10.04.2022 05:30 1,9 C 1,1 C -1,7 C 90 % 1019,1 hPa 0,0 l/m 0 min 0 min 0 W/m 3,2 km/h (1 Bft) 91,49 %
10.04.2022 05:32 1,9 C 1,1 C -1,7 C 90 % 1019,1 hPa 0,0 l/m 0 min 0 min 0 W/m 3,2 km/h (1 Bft) 95,74 %
10.04.2022 05:34 1,9 C 1,1 C -1,7 C 90 % 1019,1 hPa 0,0 l/m 0 min 0 min 0 W/m 3,2 km/h (1 Bft) 95,74 %
10.04.2022 05:36 1,9 C 1,1 C -1,7 C 90 % 1019,1 hPa 0,0 l/m 0 min 0 min 0 W/m 0,0 km/h (0 Bft) 95,74 %
10.04.2022 05:38 1,9 C 1,1 C -1,7 C 89 % 1019,1 hPa 0,0 l/m 0 min 0 min 0 W/m 3,2 km/h (1 Bft) 97,87 %
10.04.2022 05:40 1,8 C 1,1 C -1,7 C 90 % 1019,1 hPa 0,0 l/m 0 min 0 min 0 W/m 3,2 km/h (1 Bft) 95,65 %
10.04.2022 05:42 1,8 C 1,1 C -1,7 C 90 % 1019,1 hPa 0,0 l/m 0 min 0 min 0 W/m 3,2 km/h (1 Bft) 97,87 %
10.04.2022 05:44 1,8 C 1,1 C -1,7 C 89 % 1019,1 hPa 0,0 l/m 0 min 0 min 0 W/m 3,2 km/h (1 Bft) 97,87 %
10.04.2022 05:46 1,8 C 0,6 C -2,2 C 89 % 1019,2 hPa 0,0 l/m 0 min 0 min 0 W/m 0,0 km/h (0 Bft) 97,87 %
10.04.2022 05:48 1,8 C 0,6 C -2,2 C 90 % 1019,1 hPa 0,0 l/m 0 min 0 min 0 W/m 3,2 km/h (1 Bft) 95,74 %
10.04.2022 05:50 1,8 C 0,6 C -2,2 C 90 % 1019,1 hPa 0,0 l/m 0 min 0 min 0 W/m 0,0 km/h (0 Bft) 97,87 %
10.04.2022 05:52 1,8 C 0,6 C -2,2 C 90 % 1019,1 hPa 0,0 l/m 0 min 0 min 0 W/m 3,2 km/h (1 Bft) 97,83 %
10.04.2022 05:54 1,7 C 0,6 C -2,2 C 89 % 1019,2 hPa 0,0 l/m 0 min 0 min 0 W/m 3,2 km/h (1 Bft) 97,87 %
10.04.2022 05:56 1,7 C 0,6 C -2,2 C 89 % 1019,2 hPa 0,0 l/m 0 min 0 min 0 W/m 3,2 km/h (1 Bft) 97,87 %
10.04.2022 05:58 1,7 C 0,6 C -2,2 C 89 % 1019,2 hPa 0,0 l/m 0 min 0 min 0 W/m 0,0 km/h (0 Bft) 97,87 %
10.04.2022 06:00 1,7 C 0,6 C -2,2 C 90 % 1019,3 hPa 0,0 l/m 0 min 0 min 0 W/m 3,2 km/h (1 Bft) 97,87 %
10.04.2022 06:02 1,7 C 0,6 C -2,2 C 90 % 1019,2 hPa 0,0 l/m 0 min 0 min 0 W/m 3,2 km/h (1 Bft) 97,87 %
10.04.2022 06:04 1,7 C 0,6 C -2,2 C 90 % 1019,2 hPa 0,0 l/m 0 min 0 min 0 W/m 0,0 km/h (0 Bft) 95,65 %
10.04.2022 06:08 1,6 C 0,6 C -2,2 C 90 % 1019,3 hPa 0,0 l/m 0 min 0 min 0 W/m 3,2 km/h (1 Bft) 97,87 %
10.04.2022 06:10 1,6 C 0,6 C -2,2 C 90 % 1019,3 hPa 0,0 l/m 0 min 0 min 0 W/m 3,2 km/h (1 Bft) 93,62 %
10.04.2022 06:12 1,6 C 0,6 C -2,2 C 90 % 1019,3 hPa 0,0 l/m 0 min 0 min 0 W/m 6,4 km/h (2 Bft) 97,87 %
10.04.2022 06:14 1,6 C 0,6 C -2,2 C 90 % 1019,3 hPa 0,0 l/m 0 min 0 min 0 W/m 3,2 km/h (1 Bft) 97,83 %
10.04.2022 06:16 1,6 C 0,6 C -2,2 C 90 % 1019,4 hPa 0,0 l/m 0 min 0 min 0 W/m 3,2 km/h (1 Bft) 97,87 %
10.04.2022 06:18 1,6 C 0,6 C -2,2 C 90 % 1019,4 hPa 0,0 l/m 0 min 0 min 0 W/m 0,0 km/h (0 Bft) 97,87 %
10.04.2022 06:20 1,5 C 0,6 C -2,2 C 90 % 1019,4 hPa 0,0 l/m 0 min 0 min 0 W/m 3,2 km/h (1 Bft) 95,74 %
10.04.2022 06:22 1,5 C 0,6 C -2,2 C 90 % 1019,4 hPa 0,0 l/m 0 min 0 min 0 W/m 0,0 km/h (0 Bft) 97,87 %
10.04.2022 06:24 1,5 C 0,6 C -2,2 C 90 % 1019,4 hPa 0,0 l/m 0 min 0 min 0 W/m 3,2 km/h (1 Bft) 100,00 %
10.04.2022 06:26 1,4 C 0,6 C -2,2 C 90 % 1019,5 hPa 0,0 l/m 0 min 0 min 0 W/m 3,2 km/h (1 Bft) 100,00 %
10.04.2022 06:28 1,4 C 0,6 C -2,2 C 90 % 1019,5 hPa 0,0 l/m 0 min 0 min 0 W/m 3,2 km/h (1 Bft) 100,00 %
10.04.2022 06:30 1,4 C 0,6 C -2,2 C 90 % 1019,5 hPa 0,0 l/m 0 min 0 min 0 W/m 3,2 km/h (1 Bft) 97,87 %
10.04.2022 06:32 1,4 C 0,6 C -2,2 C 90 % 1019,5 hPa 0,0 l/m 0 min 0 min 0 W/m 0,0 km/h (0 Bft) 97,87 %
10.04.2022 06:34 1,4 C 0,6 C -2,2 C 90 % 1019,6 hPa 0,0 l/m 0 min 0 min 0 W/m 0,0 km/h (0 Bft) 100,00 %
10.04.2022 06:36 1,4 C 0,0 C -2,2 C 90 % 1019,6 hPa 0,0 l/m 0 min 0 min 0 W/m 0,0 km/h (0 Bft) 95,74 %
10.04.2022 06:38 1,4 C 0,0 C -2,2 C 90 % 1019,6 hPa 0,0 l/m 0 min 0 min 0 W/m 3,2 km/h (1 Bft) 100,00 %
10.04.2022 06:40 1,4 C 0,0 C -2,2 C 90 % 1019,6 hPa 0,0 l/m 0 min 0 min 0 W/m 0,0 km/h (0 Bft) 97,87 %
10.04.2022 06:42 1,4 C 0,0 C -2,2 C 90 % 1019,7 hPa 0,0 l/m 0 min 0 min 0 W/m 0,0 km/h (0 Bft) 100,00 %
10.04.2022 06:44 1,3 C 0,0 C -2,2 C 90 % 1019,7 hPa 0,0 l/m 0 min 0 min 0 W/m 0,0 km/h (0 Bft) 97,87 %
10.04.2022 06:46 1,3 C 0,0 C -2,8 C 90 % 1019,7 hPa 0,0 l/m 0 min 0 min 0 W/m 3,2 km/h (1 Bft) 95,74 %
10.04.2022 06:48 1,3 C 0,0 C -2,8 C 90 % 1019,7 hPa 0,0 l/m 0 min 0 min 0 W/m 0,0 km/h (0 Bft) 97,87 %
10.04.2022 06:50 1,3 C 0,0 C -2,8 C 90 % 1019,7 hPa 0,0 l/m 0 min 0 min 0 W/m 0,0 km/h (0 Bft) 97,83 %
10.04.2022 06:52 1,3 C 0,0 C -2,8 C 90 % 1019,7 hPa 0,0 l/m 0 min 0 min 1 W/m 0,0 km/h (0 Bft) 95,74 %
10.04.2022 06:54 1,2 C 0,0 C -2,8 C 90 % 1019,8 hPa 0,0 l/m 0 min 0 min 5 W/m 0,0 km/h (0 Bft) 95,74 %
10.04.2022 06:56 1,2 C 0,0 C -2,8 C 90 % 1019,8 hPa 0,0 l/m 0 min 0 min 5 W/m 0,0 km/h (0 Bft) 95,74 %
10.04.2022 06:58 1,2 C -0,6 C -2,8 C 90 % 1019,8 hPa 0,0 l/m 0 min 0 min 6 W/m 0,0 km/h (0 Bft) 95,74 %
10.04.2022 07:00 1,1 C 0,0 C -2,8 C 90 % 1019,8 hPa 0,0 l/m 0 min 0 min 7 W/m 0,0 km/h (0 Bft) 95,74 %
10.04.2022 07:02 1,1 C 0,0 C -2,8 C 90 % 1019,8 hPa 0,0 l/m 0 min 0 min 8 W/m 0,0 km/h (0 Bft) 95,65 %
10.04.2022 07:04 1,1 C 0,0 C -2,8 C 90 % 1019,9 hPa 0,0 l/m 0 min 0 min 9 W/m 3,2 km/h (1 Bft) 95,74 %
10.04.2022 07:06 1,1 C 0,0 C -2,8 C 90 % 1019,9 hPa 0,0 l/m 0 min 0 min 9 W/m 0,0 km/h (0 Bft) 93,62 %
10.04.2022 07:08 1,1 C 0,0 C -2,8 C 90 % 1019,9 hPa 0,0 l/m 0 min 0 min 11 W/m 0,0 km/h (0 Bft) 95,74 %
10.04.2022 07:10 1,1 C 0,0 C -2,8 C 90 % 1019,8 hPa 0,0 l/m 0 min 0 min 12 W/m 0,0 km/h (0 Bft) 95,74 %
10.04.2022 07:12 1,0 C -0,6 C -2,8 C 90 % 1019,9 hPa 0,0 l/m 0 min 0 min 12 W/m 0,0 km/h (0 Bft) 97,87 %
10.04.2022 07:14 1,0 C -0,6 C -2,8 C 90 % 1019,8 hPa 0,0 l/m 0 min 0 min 12 W/m 3,2 km/h (1 Bft) 97,83 %
10.04.2022 07:16 0,9 C -0,6 C -2,8 C 90 % 1019,8 hPa 0,0 l/m 0 min 0 min 14 W/m 0,0 km/h (0 Bft) 97,87 %
10.04.2022 07:18 0,9 C -0,6 C -3,3 C 90 % 1019,9 hPa 0,0 l/m 0 min 0 min 14 W/m 0,0 km/h (0 Bft) 97,87 %
10.04.2022 07:20 0,9 C -0,6 C -2,8 C 90 % 1019,9 hPa 0,0 l/m 0 min 0 min 15 W/m 0,0 km/h (0 Bft) 97,87 %
10.04.2022 07:22 0,8 C -0,6 C -3,3 C 90 % 1019,9 hPa 0,0 l/m 0 min 0 min 16 W/m 0,0 km/h (0 Bft) 97,87 %
10.04.2022 07:24 0,8 C -0,6 C -2,8 C 90 % 1019,9 hPa 0,0 l/m 0 min 0 min 18 W/m 0,0 km/h (0 Bft) 97,87 %
10.04.2022 07:26 0,8 C -0,6 C -2,8 C 90 % 1020,0 hPa 0,0 l/m 0 min 0 min 18 W/m 0,0 km/h (0 Bft) 100,00 %
10.04.2022 07:28 0,8 C -0,6 C -2,8 C 90 % 1020,0 hPa 0,0 l/m 0 min 0 min 19 W/m 0,0 km/h (0 Bft) 100,00 %
10.04.2022 07:30 0,7 C -0,6 C -2,8 C 90 % 1020,1 hPa 0,0 l/m 0 min 0 min 19 W/m 0,0 km/h (0 Bft) 100,00 %
10.04.2022 07:32 0,7 C -0,6 C -2,8 C 91 % 1020,0 hPa 0,0 l/m 0 min 0 min 21 W/m 0,0 km/h (0 Bft) 100,00 %
10.04.2022 07:34 0,7 C 0,0 C -2,8 C 91 % 1020,1 hPa 0,0 l/m 0 min 0 min 21 W/m 0,0 km/h (0 Bft) 100,00 %
10.04.2022 07:36 0,7 C 0,0 C -2,8 C 91 % 1020,0 hPa 0,0 l/m 0 min 0 min 21 W/m 0,0 km/h (0 Bft) 100,00 %
10.04.2022 07:38 0,7 C 0,0 C -2,8 C 91 % 1020,1 hPa 0,0 l/m 0 min 0 min 23 W/m 0,0 km/h (0 Bft) 100,00 %
10.04.2022 07:40 0,7 C 0,0 C -2,8 C 91 % 1020,1 hPa 0,0 l/m 0 min 0 min 23 W/m 0,0 km/h (0 Bft) 100,00 %
10.04.2022 07:42 0,7 C 0,0 C -2,8 C 91 % 1020,1 hPa 0,0 l/m 0 min 0 min 25 W/m 0,0 km/h (0 Bft) 100,00 %
10.04.2022 07:44 0,7 C 0,0 C -2,8 C 91 % 1020,1 hPa 0,0 l/m 0 min 0 min 25 W/m 0,0 km/h (0 Bft) 97,87 %
10.04.2022 07:46 0,8 C 0,6 C -2,8 C 91 % 1020,1 hPa 0,0 l/m 0 min 0 min 25 W/m 3,2 km/h (1 Bft) 100,00 %
10.04.2022 07:48 0,8 C 0,6 C -2,8 C 91 % 1020,1 hPa 0,0 l/m 0 min 0 min 26 W/m 0,0 km/h (0 Bft) 100,00 %
10.04.2022 07:50 0,7 C 0,6 C -2,8 C 91 % 1020,2 hPa 0,0 l/m 0 min 0 min 26 W/m 0,0 km/h (0 Bft) 100,00 %
10.04.2022 07:52 0,8 C 0,6 C -2,2 C 91 % 1020,2 hPa 0,0 l/m 0 min 0 min 28 W/m 3,2 km/h (1 Bft) 97,87 %
10.04.2022 07:54 0,8 C 0,6 C -2,2 C 91 % 1020,2 hPa 0,0 l/m 0 min 0 min 28 W/m 3,2 km/h (1 Bft) 100,00 %
10.04.2022 07:56 0,8 C 0,6 C -2,2 C 91 % 1020,2 hPa 0,0 l/m 0 min 0 min 28 W/m 0,0 km/h (0 Bft) 100,00 %
10.04.2022 07:58 0,9 C 0,6 C -2,2 C 91 % 1020,2 hPa 0,0 l/m 0 min 0 min 28 W/m 0,0 km/h (0 Bft) 100,00 %
10.04.2022 08:00 0,9 C 0,6 C -2,2 C 91 % 1020,2 hPa 0,0 l/m 0 min 0 min 30 W/m 3,2 km/h (1 Bft) 100,00 %
10.04.2022 08:02 1,0 C 1,1 C -2,2 C 92 % 1020,2 hPa 0,0 l/m 0 min 0 min 30 W/m 3,2 km/h (1 Bft) 97,92 %
10.04.2022 08:04 1,1 C 1,1 C -2,2 C 92 % 1020,3 hPa 0,0 l/m 0 min 0 min 30 W/m 3,2 km/h (1 Bft) 100,00 %
10.04.2022 08:06 1,2 C 1,1 C -1,7 C 92 % 1020,3 hPa 0,0 l/m 0 min 0 min 31 W/m 0,0 km/h (0 Bft) 100,00 %
10.04.2022 08:08 1,2 C 1,1 C -1,7 C 92 % 1020,3 hPa 0,0 l/m 0 min 0 min 32 W/m 3,2 km/h (1 Bft) 100,00 %
10.04.2022 08:10 1,3 C 1,1 C -1,7 C 92 % 1020,4 hPa 0,0 l/m 0 min 0 min 32 W/m 3,2 km/h (1 Bft) 100,00 %
10.04.2022 08:12 1,4 C 1,7 C -1,7 C 92 % 1020,4 hPa 0,0 l/m 0 min 0 min 32 W/m 3,2 km/h (1 Bft) 100,00 %
10.04.2022 08:14 1,4 C 1,7 C -1,7 C 92 % 1020,4 hPa 0,0 l/m 0 min 0 min 33 W/m 3,2 km/h (1 Bft) 100,00 %
10.04.2022 08:16 1,6 C 1,7 C -1,1 C 92 % 1020,4 hPa 0,0 l/m 0 min 0 min 33 W/m 3,2 km/h (1 Bft) 100,00 %
10.04.2022 08:18 1,6 C 1,7 C -1,1 C 93 % 1020,4 hPa 0,0 l/m 0 min 0 min 33 W/m 6,4 km/h (2 Bft) 100,00 %
10.04.2022 08:20 1,7 C 1,7 C -1,1 C 93 % 1020,5 hPa 0,0 l/m 0 min 0 min 34 W/m 3,2 km/h (1 Bft) 97,87 %
10.04.2022 08:22 1,8 C 2,2 C -1,1 C 93 % 1020,6 hPa 0,0 l/m 0 min 0 min 35 W/m 6,4 km/h (2 Bft) 97,87 %
10.04.2022 08:24 1,9 C 2,2 C -1,1 C 93 % 1020,6 hPa 0,0 l/m 0 min 0 min 35 W/m 16,1 km/h (3 Bft) 100,00 %
10.04.2022 08:26 2,0 C 2,2 C -1,1 C 93 % 1020,6 hPa 0,0 l/m 0 min 0 min 36 W/m 6,4 km/h (2 Bft) 97,83 %
10.04.2022 08:28 2,2 C 2,2 C -0,6 C 93 % 1020,6 hPa 0,0 l/m 0 min 0 min 37 W/m 6,4 km/h (2 Bft) 100,00 %
10.04.2022 08:30 2,2 C 2,8 C -0,6 C 93 % 1020,6 hPa 0,0 l/m 0 min 0 min 37 W/m 6,4 km/h (2 Bft) 54,35 %
10.04.2022 08:32 2,4 C 2,8 C -0,6 C 93 % 1020,6 hPa 0,0 l/m 0 min 0 min 38 W/m 6,4 km/h (2 Bft) 100,00 %
10.04.2022 08:34 2,4 C 2,8 C -0,6 C 93 % 1020,6 hPa 0,0 l/m 0 min 0 min 39 W/m 3,2 km/h (1 Bft) 97,87 %
10.04.2022 08:36 2,6 C 2,8 C -0,6 C 93 % 1020,6 hPa 0,0 l/m 0 min 0 min 40 W/m 6,4 km/h (2 Bft) 93,10 %
10.04.2022 08:38 2,7 C 2,8 C -0,6 C 93 % 1020,6 hPa 0,0 l/m 0 min 0 min 41 W/m 12,9 km/h (3 Bft) 100,00 %
10.04.2022 08:40 2,8 C 2,8 C -0,6 C 93 % 1020,7 hPa 0,0 l/m 0 min 0 min 42 W/m 3,2 km/h (1 Bft) 96,49 %
10.04.2022 08:42 2,9 C 2,8 C 0,0 C 93 % 1020,6 hPa 0,0 l/m 0 min 0 min 42 W/m 16,1 km/h (3 Bft) 97,87 %
10.04.2022 08:44 3,0 C 3,3 C 0,0 C 92 % 1020,6 hPa 0,0 l/m 0 min 0 min 42 W/m 6,4 km/h (2 Bft) 95,74 %
10.04.2022 08:46 3,1 C 3,3 C 0,0 C 92 % 1020,6 hPa 0,0 l/m 0 min 0 min 42 W/m 12,9 km/h (3 Bft) 97,87 %
10.04.2022 08:48 3,1 C 3,3 C 0,0 C 92 % 1020,7 hPa 0,0 l/m 0 min 0 min 44 W/m 6,4 km/h (2 Bft) 97,83 %
10.04.2022 08:50 3,2 C 3,3 C 0,0 C 92 % 1020,7 hPa 0,0 l/m 0 min 0 min 44 W/m 9,7 km/h (2 Bft) 93,62 %
10.04.2022 08:52 3,3 C 3,3 C 0,0 C 92 % 1020,7 hPa 0,0 l/m 0 min 0 min 46 W/m 6,4 km/h (2 Bft) 95,74 %
10.04.2022 08:54 3,4 C 3,9 C 0,0 C 92 % 1020,8 hPa 0,0 l/m 0 min 0 min 46 W/m 9,7 km/h (2 Bft) 93,62 %
10.04.2022 08:56 3,5 C 3,9 C 0,6 C 91 % 1020,7 hPa 0,0 l/m 0 min 0 min 46 W/m 12,9 km/h (3 Bft) 95,74 %
10.04.2022 08:58 3,6 C 3,9 C 0,6 C 91 % 1020,7 hPa 0,0 l/m 0 min 0 min 93 W/m 6,4 km/h (2 Bft) 93,62 %
10.04.2022 09:00 3,7 C 3,9 C 0,6 C 91 % 1020,7 hPa 0,0 l/m 2 min 0 min 267 W/m 9,7 km/h (2 Bft) 95,65 %
10.04.2022 09:02 3,8 C 3,9 C 0,6 C 90 % 1020,7 hPa 0,0 l/m 2 min 0 min 303 W/m 6,4 km/h (2 Bft) 93,75 %
10.04.2022 09:04 3,8 C 3,9 C 0,6 C 90 % 1020,7 hPa 0,0 l/m 2 min 0 min 311 W/m 6,4 km/h (2 Bft) 95,74 %
10.04.2022 09:06 3,9 C 3,9 C 0,6 C 90 % 1020,7 hPa 0,0 l/m 2 min 0 min 316 W/m 6,4 km/h (2 Bft) 93,62 %
10.04.2022 09:08 4,0 C 3,9 C 0,6 C 90 % 1020,7 hPa 0,0 l/m 2 min 0 min 324 W/m 12,9 km/h (3 Bft) 93,62 %
10.04.2022 09:10 4,1 C 4,4 C 0,6 C 90 % 1020,8 hPa 0,0 l/m 2 min 0 min 332 W/m 12,9 km/h (3 Bft) 95,65 %
10.04.2022 09:12 4,3 C 4,4 C 0,6 C 89 % 1020,8 hPa 0,0 l/m 2 min 0 min 339 W/m 9,7 km/h (2 Bft) 95,74 %
10.04.2022 09:14 4,3 C 5,6 C 1,1 C 89 % 1020,8 hPa 0,0 l/m 2 min 0 min 346 W/m 6,4 km/h (2 Bft) 93,62 %
10.04.2022 09:16 4,5 C 6,7 C 1,1 C 89 % 1020,8 hPa 0,0 l/m 2 min 0 min 355 W/m 9,7 km/h (2 Bft) 91,49 %
10.04.2022 09:18 4,6 C 8,3 C 1,1 C 89 % 1020,9 hPa 0,0 l/m 2 min 0 min 363 W/m 6,4 km/h (2 Bft) 95,74 %
10.04.2022 09:20 4,7 C 9,4 C 1,1 C 88 % 1020,8 hPa 0,0 l/m 2 min 0 min 370 W/m 16,1 km/h (3 Bft) 93,62 %
10.04.2022 09:22 4,9 C 10,0 C 1,1 C 88 % 1020,8 hPa 0,0 l/m 2 min 0 min 375 W/m 12,9 km/h (3 Bft) 94,59 %
10.04.2022 09:24 5,1 C 10,0 C 1,1 C 88 % 1020,9 hPa 0,0 l/m 2 min 0 min 380 W/m 6,4 km/h (2 Bft) 97,83 %
10.04.2022 09:26 5,2 C 10,0 C 1,7 C 87 % 1020,9 hPa 0,0 l/m 2 min 0 min 382 W/m 16,1 km/h (3 Bft) 95,74 %
10.04.2022 09:28 5,3 C 10,0 C 1,7 C 86 % 1020,9 hPa 0,0 l/m 2 min 0 min 392 W/m 12,9 km/h (3 Bft) 95,74 %
10.04.2022 09:30 5,4 C 10,0 C 1,7 C 86 % 1020,9 hPa 0,0 l/m 2 min 0 min 399 W/m 6,4 km/h (2 Bft) 97,87 %
10.04.2022 09:32 5,6 C 11,1 C 1,7 C 86 % 1020,8 hPa 0,0 l/m 2 min 0 min 403 W/m 6,4 km/h (2 Bft) 95,74 %
10.04.2022 09:34 5,7 C 10,6 C 2,2 C 85 % 1020,9 hPa 0,0 l/m 2 min 0 min 410 W/m 12,9 km/h (3 Bft) 97,87 %
10.04.2022 09:36 5,8 C 10,6 C 2,2 C 85 % 1020,9 hPa 0,0 l/m 2 min 0 min 418 W/m 6,4 km/h (2 Bft) 95,65 %
10.04.2022 09:38 5,9 C 11,1 C 2,2 C 84 % 1020,9 hPa 0,0 l/m 2 min 0 min 422 W/m 12,9 km/h (3 Bft) 97,87 %
10.04.2022 09:40 6,0 C 10,6 C 2,2 C 84 % 1021,0 hPa 0,0 l/m 2 min 0 min 426 W/m 16,1 km/h (3 Bft) 95,74 %
10.04.2022 09:42 6,1 C 10,0 C 2,2 C 83 % 1021,0 hPa 0,0 l/m 2 min 0 min 432 W/m 9,7 km/h (2 Bft) 96,36 %
10.04.2022 09:44 6,2 C 10,0 C 2,8 C 83 % 1020,9 hPa 0,0 l/m 2 min 0 min 440 W/m 12,9 km/h (3 Bft) 95,74 %
10.04.2022 09:46 6,3 C 9,4 C 2,8 C 83 % 1021,0 hPa 0,0 l/m 2 min 0 min 443 W/m 9,7 km/h (2 Bft) 97,83 %
10.04.2022 09:48 6,4 C 9,4 C 2,8 C 83 % 1021,0 hPa 0,0 l/m 2 min 0 min 447 W/m 9,7 km/h (2 Bft) 97,87 %
10.04.2022 09:50 6,5 C 9,4 C 2,8 C 82 % 1021,0 hPa 0,0 l/m 2 min 0 min 455 W/m 12,9 km/h (3 Bft) 93,62 %
10.04.2022 09:52 6,6 C 9,4 C 2,8 C 82 % 1021,1 hPa 0,0 l/m 2 min 0 min 475 W/m 12,9 km/h (3 Bft) 96,00 %
10.04.2022 09:54 6,7 C 8,9 C 2,8 C 82 % 1021,1 hPa 0,0 l/m 2 min 0 min 446 W/m 12,9 km/h (3 Bft) 100,00 %
10.04.2022 09:59 6,6 C 7,2 C 2,8 C 80 % 1021,2 hPa 0,0 l/m 5 min 0 min 385 W/m 19,3 km/h (3 Bft) 94,59 %
10.04.2022 10:00 6,6 C 7,2 C 2,8 C 80 % 1021,2 hPa 0,0 l/m 0 min 0 min 147 W/m 12,9 km/h (3 Bft) 100,00 %
10.04.2022 10:02 6,5 C 7,8 C 2,8 C 80 % 1021,3 hPa 0,0 l/m 0 min 0 min 206 W/m 12,9 km/h (3 Bft) 97,87 %
10.04.2022 10:04 6,6 C 8,9 C 2,8 C 80 % 1021,3 hPa 0,0 l/m 2 min 0 min 529 W/m 9,7 km/h (2 Bft) 97,87 %
10.04.2022 10:06 6,7 C 9,4 C 3,3 C 81 % 1021,3 hPa 0,0 l/m 2 min 0 min 398 W/m 6,4 km/h (2 Bft) 97,87 %
10.04.2022 10:08 6,8 C 9,4 C 3,3 C 80 % 1021,3 hPa 0,0 l/m 2 min 0 min 377 W/m 12,9 km/h (3 Bft) 97,83 %
10.04.2022 10:10 6,8 C 8,9 C 3,3 C 80 % 1021,3 hPa 0,0 l/m 0 min 0 min 220 W/m 9,7 km/h (2 Bft) 95,74 %
10.04.2022 10:12 6,9 C 10,0 C 3,3 C 79 % 1021,3 hPa 0,0 l/m 2 min 0 min 420 W/m 9,7 km/h (2 Bft) 97,87 %
10.04.2022 10:14 6,9 C 10,6 C 3,3 C 78 % 1021,4 hPa 0,0 l/m 2 min 0 min 515 W/m 12,9 km/h (3 Bft) 95,74 %
10.04.2022 10:16 7,1 C 11,1 C 3,3 C 78 % 1021,4 hPa 0,0 l/m 2 min 0 min 528 W/m 12,9 km/h (3 Bft) 95,74 %
10.04.2022 10:18 7,2 C 11,7 C 3,9 C 78 % 1021,4 hPa 0,0 l/m 2 min 0 min 533 W/m 9,7 km/h (2 Bft) 97,87 %
10.04.2022 10:20 7,3 C 11,7 C 3,9 C 78 % 1021,4 hPa 0,0 l/m 2 min 0 min 472 W/m 16,1 km/h (3 Bft) 97,83 %
10.04.2022 10:22 7,5 C 11,7 C 3,9 C 78 % 1021,5 hPa 0,0 l/m 2 min 0 min 364 W/m 16,1 km/h (3 Bft) 97,87 %
10.04.2022 10:24 7,6 C 11,7 C 3,9 C 77 % 1021,5 hPa 0,0 l/m 2 min 0 min 286 W/m 12,9 km/h (3 Bft) 97,87 %
10.04.2022 10:26 7,7 C 12,2 C 4,4 C 76 % 1021,5 hPa 0,0 l/m 0 min 0 min 216 W/m 12,9 km/h (3 Bft) 95,74 %
10.04.2022 10:28 7,8 C 12,2 C 4,4 C 76 % 1021,6 hPa 0,0 l/m 0 min 0 min 158 W/m 9,7 km/h (2 Bft) 97,87 %
10.04.2022 10:30 7,8 C 11,7 C 4,4 C 76 % 1021,6 hPa 0,0 l/m 0 min 0 min 172 W/m 16,1 km/h (3 Bft) 97,87 %
10.04.2022 10:32 7,8 C 11,7 C 4,4 C 75 % 1021,6 hPa 0,0 l/m 0 min 0 min 202 W/m 9,7 km/h (2 Bft) 97,83 %
10.04.2022 10:34 7,9 C 11,7 C 4,4 C 75 % 1021,5 hPa 0,0 l/m 0 min 0 min 202 W/m 16,1 km/h (3 Bft) 97,87 %
10.04.2022 10:36 8,0 C 12,2 C 4,4 C 75 % 1021,5 hPa 0,0 l/m 2 min 0 min 362 W/m 19,3 km/h (3 Bft) 97,87 %
10.04.2022 10:38 8,1 C 11,7 C 4,4 C 75 % 1021,5 hPa 0,0 l/m 2 min 0 min 283 W/m 16,1 km/h (3 Bft) 97,87 %
10.04.2022 10:40 8,2 C 10,6 C 4,4 C 75 % 1021,6 hPa 0,0 l/m 0 min 0 min 209 W/m 12,9 km/h (3 Bft) 95,74 %
10.04.2022 10:42 8,2 C 9,4 C 4,4 C 74 % 1021,6 hPa 0,0 l/m 0 min 0 min 207 W/m 9,7 km/h (2 Bft) 95,74 %
10.04.2022 10:44 8,1 C 9,4 C 4,4 C 74 % 1021,6 hPa 0,0 l/m 0 min 0 min 233 W/m 9,7 km/h (2 Bft) 97,83 %
10.04.2022 10:46 8,1 C 8,9 C 4,4 C 74 % 1021,6 hPa 0,0 l/m 0 min 0 min 162 W/m 19,3 km/h (3 Bft) 97,87 %
10.04.2022 10:48 7,9 C 8,3 C 3,9 C 73 % 1021,7 hPa 0,0 l/m 0 min 0 min 138 W/m 16,1 km/h (3 Bft) 97,87 %
10.04.2022 10:50 7,9 C 8,9 C 3,9 C 73 % 1021,6 hPa 0,0 l/m 0 min 0 min 167 W/m 9,7 km/h (2 Bft) 93,62 %
10.04.2022 10:52 7,9 C 8,9 C 4,4 C 73 % 1021,6 hPa 0,0 l/m 0 min 0 min 205 W/m 12,9 km/h (3 Bft) 97,87 %
10.04.2022 10:54 7,9 C 8,9 C 4,4 C 73 % 1021,6 hPa 0,0 l/m 0 min 0 min 200 W/m 12,9 km/h (3 Bft) 95,65 %
10.04.2022 10:56 8,0 C 8,9 C 4,4 C 73 % 1021,6 hPa 0,0 l/m 0 min 0 min 214 W/m 19,3 km/h (3 Bft) 95,74 %
10.04.2022 10:58 8,1 C 9,4 C 5,0 C 73 % 1021,7 hPa 0,0 l/m 0 min 0 min 214 W/m 22,5 km/h (4 Bft) 95,74 %
10.04.2022 11:00 8,2 C 9,4 C 5,0 C 72 % 1021,7 hPa 0,0 l/m 2 min 0 min 366 W/m 16,1 km/h (3 Bft) 95,74 %
10.04.2022 11:02 8,3 C 9,4 C 5,6 C 72 % 1021,7 hPa 0,0 l/m 2 min 0 min 525 W/m 12,9 km/h (3 Bft) 95,74 %
10.04.2022 11:04 8,3 C 8,9 C 5,0 C 72 % 1021,8 hPa 0,0 l/m 0 min 0 min 165 W/m 19,3 km/h (3 Bft) 95,74 %
10.04.2022 11:06 8,2 C 8,3 C 5,0 C 71 % 1021,7 hPa 0,0 l/m 0 min 0 min 197 W/m 12,9 km/h (3 Bft) 93,48 %
10.04.2022 11:08 8,2 C 8,9 C 5,0 C 71 % 1021,7 hPa 0,0 l/m 2 min 0 min 503 W/m 19,3 km/h (3 Bft) 93,62 %
10.04.2022 11:10 8,3 C 8,9 C 4,4 C 72 % 1021,8 hPa 0,0 l/m 2 min 0 min 322 W/m 25,7 km/h (4 Bft) 93,62 %
10.04.2022 11:12 8,2 C 8,9 C 4,4 C 71 % 1021,8 hPa 0,0 l/m 0 min 0 min 204 W/m 25,7 km/h (4 Bft) 91,49 %
10.04.2022 11:14 8,3 C 9,4 C 5,0 C 70 % 1021,8 hPa 0,0 l/m 0 min 0 min 221 W/m 9,7 km/h (2 Bft) 91,49 %
10.04.2022 11:16 8,3 C 10,0 C 5,0 C 70 % 1021,8 hPa 0,0 l/m 2 min 0 min 671 W/m 16,1 km/h (3 Bft) 91,49 %
10.04.2022 11:18 8,4 C 9,4 C 5,0 C 70 % 1021,7 hPa 0,0 l/m 2 min 0 min 325 W/m 16,1 km/h (3 Bft) 93,48 %
10.04.2022 11:20 8,4 C 9,4 C 5,0 C 70 % 1021,7 hPa 0,0 l/m 0 min 0 min 300 W/m 22,5 km/h (4 Bft) 93,62 %
10.04.2022 11:22 8,4 C 10,0 C 5,6 C 70 % 1021,7 hPa 0,0 l/m 0 min 0 min 288 W/m 16,1 km/h (3 Bft) 93,62 %
10.04.2022 11:24 8,6 C 10,6 C 6,1 C 70 % 1021,7 hPa 0,0 l/m 0 min 0 min 266 W/m 12,9 km/h (3 Bft) 93,62 %
10.04.2022 11:26 8,7 C 11,1 C 6,7 C 70 % 1021,7 hPa 0,0 l/m 0 min 0 min 279 W/m 19,3 km/h (3 Bft) 93,62 %
10.04.2022 11:28 8,8 C 10,6 C 6,1 C 67 % 1021,8 hPa 0,0 l/m 2 min 0 min 355 W/m 22,5 km/h (4 Bft) 93,62 %
10.04.2022 11:30 8,9 C 10,6 C 6,1 C 67 % 1021,8 hPa 0,0 l/m 2 min 0 min 348 W/m 19,3 km/h (3 Bft) 97,83 %
10.04.2022 11:32 8,9 C 9,4 C 5,6 C 66 % 1021,7 hPa 0,0 l/m 0 min 0 min 172 W/m 25,7 km/h (4 Bft) 97,87 %
10.04.2022 11:34 8,8 C 8,9 C 5,0 C 66 % 1021,7 hPa 0,0 l/m 0 min 0 min 146 W/m 12,9 km/h (3 Bft) 95,74 %
10.04.2022 11:36 8,8 C 8,9 C 5,0 C 66 % 1021,8 hPa 0,0 l/m 0 min 0 min 135 W/m 22,5 km/h (4 Bft) 97,87 %
10.04.2022 11:38 8,7 C 8,3 C 4,4 C 67 % 1021,8 hPa 0,0 l/m 0 min 0 min 135 W/m 16,1 km/h (3 Bft) 95,74 %
10.04.2022 11:40 8,7 C 8,3 C 4,4 C 67 % 1021,8 hPa 0,0 l/m 0 min 0 min 152 W/m 12,9 km/h (3 Bft) 68,09 %
10.04.2022 11:42 8,6 C 8,3 C 4,4 C 67 % 1021,7 hPa 0,0 l/m 0 min 0 min 164 W/m 16,1 km/h (3 Bft) 84,09 %
10.04.2022 11:44 8,4 C 8,3 C 4,4 C 67 % 1021,8 hPa 0,0 l/m 0 min 0 min 181 W/m 12,9 km/h (3 Bft) 93,62 %
10.04.2022 11:46 8,3 C 8,3 C 4,4 C 67 % 1021,7 hPa 0,0 l/m 0 min 0 min 212 W/m 6,4 km/h (2 Bft) 95,74 %
10.04.2022 11:48 8,3 C 8,3 C 4,4 C 67 % 1021,7 hPa 0,0 l/m 0 min 0 min 246 W/m 12,9 km/h (3 Bft) 100,00 %
10.04.2022 11:50 8,2 C 9,4 C 6,1 C 67 % 1021,8 hPa 0,0 l/m 2 min 0 min 483 W/m 16,1 km/h (3 Bft) 100,00 %
10.04.2022 11:52 8,3 C 10,0 C 7,2 C 67 % 1021,8 hPa 0,0 l/m 2 min 0 min 614 W/m 19,3 km/h (3 Bft) 97,83 %
10.04.2022 11:54 8,4 C 10,0 C 7,2 C 67 % 1021,7 hPa 0,0 l/m 2 min 0 min 824 W/m 16,1 km/h (3 Bft) 95,74 %
10.04.2022 11:56 8,6 C 10,6 C 7,2 C 67 % 1021,8 hPa 0,0 l/m 2 min 0 min 499 W/m 12,9 km/h (3 Bft) 100,00 %
10.04.2022 11:58 8,7 C 10,6 C 7,2 C 67 % 1021,7 hPa 0,0 l/m 2 min 0 min 439 W/m 12,9 km/h (3 Bft) 100,00 %
10.04.2022 12:00 8,8 C 10,6 C 6,7 C 67 % 1021,7 hPa 0,0 l/m 2 min 0 min 367 W/m 12,9 km/h (3 Bft) 100,00 %
10.04.2022 12:02 8,8 C 10,0 C 6,7 C 67 % 1021,7 hPa 0,0 l/m 2 min 0 min 388 W/m 12,9 km/h (3 Bft) 100,00 %
10.04.2022 12:04 8,9 C 10,6 C 6,7 C 67 % 1021,7 hPa 0,0 l/m 2 min 0 min 425 W/m 19,3 km/h (3 Bft) 100,00 %
10.04.2022 12:08 9,0 C 9,4 C 6,1 C 67 % 1021,8 hPa 0,0 l/m 0 min 0 min 232 W/m 16,1 km/h (3 Bft) 98,94 %
10.04.2022 12:10 8,9 C 8,9 C 5,6 C 67 % 1021,8 hPa 0,0 l/m 0 min 0 min 127 W/m 16,1 km/h (3 Bft) 97,14 %
10.04.2022 12:12 8,8 C 8,3 C 5,0 C 67 % 1021,8 hPa 0,0 l/m 0 min 0 min 119 W/m 19,3 km/h (3 Bft) 100,00 %
10.04.2022 12:14 8,7 C 8,3 C 5,0 C 67 % 1021,8 hPa 0,0 l/m 0 min 0 min 142 W/m 16,1 km/h (3 Bft) 100,00 %
10.04.2022 12:16 8,6 C 8,3 C 4,4 C 67 % 1021,8 hPa 0,0 l/m 0 min 0 min 176 W/m 12,9 km/h (3 Bft) 97,87 %
10.04.2022 12:18 8,6 C 8,3 C 4,4 C 68 % 1021,7 hPa 0,0 l/m 0 min 0 min 213 W/m 22,5 km/h (4 Bft) 100,00 %
10.04.2022 12:20 8,4 C 8,3 C 4,4 C 69 % 1021,8 hPa 0,0 l/m 0 min 0 min 233 W/m 22,5 km/h (4 Bft) 100,00 %
10.04.2022 12:22 8,3 C 8,3 C 5,0 C 69 % 1021,8 hPa 0,0 l/m 0 min 0 min 283 W/m 16,1 km/h (3 Bft) 100,00 %
10.04.2022 12:24 8,3 C 10,0 C 6,7 C 69 % 1021,8 hPa 0,0 l/m 0 min 0 min 318 W/m 16,1 km/h (3 Bft) 100,00 %
10.04.2022 12:26 8,5 C 11,1 C 8,3 C 70 % 1021,8 hPa 0,0 l/m 2 min 0 min 722 W/m 19,3 km/h (3 Bft) 100,00 %
10.04.2022 12:28 8,7 C 12,2 C 8,3 C 70 % 1021,8 hPa 0,0 l/m 2 min 0 min 749 W/m 16,1 km/h (3 Bft) 100,00 %
10.04.2022 12:30 8,8 C 12,2 C 8,9 C 70 % 1021,8 hPa 0,0 l/m 2 min 0 min 383 W/m 25,7 km/h (4 Bft) 100,00 %
10.04.2022 12:32 8,9 C 12,2 C 8,3 C 69 % 1021,7 hPa 0,0 l/m 0 min 0 min 294 W/m 25,7 km/h (4 Bft) 100,00 %
10.04.2022 12:34 9,0 C 11,7 C 8,3 C 69 % 1021,7 hPa 0,0 l/m 0 min 0 min 258 W/m 22,5 km/h (4 Bft) 100,00 %
10.04.2022 12:36 9,1 C 11,7 C 8,9 C 69 % 1021,7 hPa 0,0 l/m 0 min 0 min 341 W/m 12,9 km/h (3 Bft) 100,00 %
10.04.2022 12:38 9,2 C 12,2 C 10,0 C 67 % 1021,7 hPa 0,0 l/m 2 min 0 min 820 W/m 16,1 km/h (3 Bft) 100,00 %
10.04.2022 12:40 9,3 C 12,8 C 11,7 C 67 % 1021,7 hPa 0,0 l/m 2 min 0 min 807 W/m 12,9 km/h (3 Bft) 100,00 %
10.04.2022 12:42 9,5 C 12,8 C 11,7 C 66 % 1021,7 hPa 0,0 l/m 2 min 0 min 801 W/m 12,9 km/h (3 Bft) 100,00 %
10.04.2022 12:44 9,7 C 13,3 C 12,2 C 66 % 1021,7 hPa 0,0 l/m 2 min 0 min 817 W/m 19,3 km/h (3 Bft) 100,00 %
10.04.2022 12:46 9,8 C 13,3 C 11,7 C 66 % 1021,7 hPa 0,0 l/m 2 min 0 min 795 W/m 22,5 km/h (4 Bft) 97,37 %
10.04.2022 12:48 9,9 C 13,9 C 11,7 C 65 % 1021,7 hPa 0,0 l/m 2 min 0 min 803 W/m 16,1 km/h (3 Bft) 100,00 %
10.04.2022 12:50 10,1 C 13,3 C 11,1 C 64 % 1021,7 hPa 0,0 l/m 2 min 0 min 798 W/m 16,1 km/h (3 Bft) 100,00 %
10.04.2022 12:52 10,2 C 13,9 C 11,1 C 64 % 1021,7 hPa 0,0 l/m 2 min 0 min 812 W/m 16,1 km/h (3 Bft) 97,87 %
10.04.2022 12:54 10,3 C 14,4 C 10,6 C 65 % 1021,6 hPa 0,0 l/m 2 min 0 min 791 W/m 12,9 km/h (3 Bft) 97,83 %
10.04.2022 12:56 10,4 C 14,4 C 10,6 C 65 % 1021,7 hPa 0,0 l/m 2 min 0 min 792 W/m 19,3 km/h (3 Bft) 100,00 %
10.04.2022 12:58 10,6 C 14,4 C 10,6 C 64 % 1021,6 hPa 0,0 l/m 2 min 0 min 818 W/m 16,1 km/h (3 Bft) 100,00 %
10.04.2022 13:00 10,6 C 13,9 C 10,0 C 63 % 1021,6 hPa 0,0 l/m 2 min 0 min 861 W/m 19,3 km/h (3 Bft) 100,00 %
10.04.2022 13:02 10,6 C 14,4 C 10,0 C 63 % 1021,6 hPa 0,0 l/m 2 min 0 min 854 W/m 16,1 km/h (3 Bft) 98,00 %
10.04.2022 13:04 10,7 C 14,4 C 9,4 C 63 % 1021,7 hPa 0,0 l/m 2 min 0 min 844 W/m 12,9 km/h (3 Bft) 97,83 %
10.04.2022 13:06 10,8 C 13,9 C 8,9 C 61 % 1021,6 hPa 0,0 l/m 2 min 0 min 813 W/m 16,1 km/h (3 Bft) 97,87 %
10.04.2022 13:08 10,8 C 13,9 C 8,3 C 61 % 1021,6 hPa 0,0 l/m 2 min 0 min 825 W/m 16,1 km/h (3 Bft) 97,87 %
10.04.2022 13:10 10,9 C 14,4 C 8,3 C 60 % 1021,6 hPa 0,0 l/m 2 min 0 min 853 W/m 16,1 km/h (3 Bft) 95,74 %
10.04.2022 13:12 10,9 C 14,4 C 8,3 C 61 % 1021,6 hPa 0,0 l/m 2 min 0 min 874 W/m 19,3 km/h (3 Bft) 97,73 %
10.04.2022 13:14 11,1 C 14,4 C 8,3 C 62 % 1021,6 hPa 0,0 l/m 2 min 0 min 888 W/m 19,3 km/h (3 Bft) 98,00 %
10.04.2022 13:16 11,2 C 14,4 C 8,3 C 62 % 1021,6 hPa 0,0 l/m 2 min 0 min 902 W/m 19,3 km/h (3 Bft) 95,65 %
10.04.2022 13:18 11,3 C 15,0 C 8,3 C 61 % 1021,6 hPa 0,0 l/m 2 min 0 min 903 W/m 12,9 km/h (3 Bft) 97,87 %
10.04.2022 13:20 11,4 C 15,6 C 8,9 C 61 % 1021,6 hPa 0,0 l/m 2 min 0 min 966 W/m 12,9 km/h (3 Bft) 97,87 %
10.04.2022 13:22 11,6 C 15,6 C 8,9 C 62 % 1021,5 hPa 0,0 l/m 2 min 0 min 967 W/m 22,5 km/h (4 Bft) 97,87 %
10.04.2022 13:24 11,7 C 15,6 C 8,9 C 61 % 1021,5 hPa 0,0 l/m 2 min 0 min 1005 W/m 12,9 km/h (3 Bft) 97,87 %
10.04.2022 13:26 11,8 C 16,1 C 8,9 C 61 % 1021,5 hPa 0,0 l/m 2 min 0 min 976 W/m 9,7 km/h (2 Bft) 97,87 %
10.04.2022 13:28 12,0 C 15,0 C 8,9 C 61 % 1021,5 hPa 0,0 l/m 2 min 0 min 596 W/m 12,9 km/h (3 Bft) 97,73 %
10.04.2022 13:30 11,9 C 14,4 C 8,3 C 60 % 1021,5 hPa 0,0 l/m 0 min 0 min 346 W/m 16,1 km/h (3 Bft) 97,83 %
10.04.2022 13:32 11,8 C 13,3 C 8,3 C 60 % 1021,5 hPa 0,0 l/m 2 min 0 min 372 W/m 12,9 km/h (3 Bft) 98,00 %
10.04.2022 13:34 11,7 C 13,3 C 7,8 C 61 % 1021,6 hPa 0,0 l/m 0 min 0 min 300 W/m 19,3 km/h (3 Bft) 97,87 %
10.04.2022 13:36 11,6 C 12,2 C 7,2 C 61 % 1021,6 hPa 0,0 l/m 0 min 0 min 184 W/m 22,5 km/h (4 Bft) 97,87 %
10.04.2022 13:38 11,4 C 11,7 C 6,7 C 61 % 1021,6 hPa 0,0 l/m 0 min 0 min 127 W/m 19,3 km/h (3 Bft) 93,62 %
10.04.2022 13:40 11,2 C 12,2 C 7,2 C 61 % 1021,6 hPa 0,0 l/m 2 min 0 min 526 W/m 16,1 km/h (3 Bft) 97,83 %
10.04.2022 13:42 11,1 C 13,9 C 7,8 C 62 % 1021,6 hPa 0,0 l/m 2 min 0 min 829 W/m 9,7 km/h (2 Bft) 95,74 %
10.04.2022 13:44 11,1 C 14,4 C 8,3 C 61 % 1021,6 hPa 0,0 l/m 2 min 0 min 825 W/m 12,9 km/h (3 Bft) 95,45 %
10.04.2022 13:46 11,1 C 15,0 C 8,3 C 61 % 1021,6 hPa 0,0 l/m 2 min 0 min 847 W/m 9,7 km/h (2 Bft) 97,87 %
10.04.2022 13:48 11,0 C 15,0 C 7,8 C 61 % 1021,6 hPa 0,0 l/m 2 min 0 min 854 W/m 22,5 km/h (4 Bft) 97,87 %
10.04.2022 13:50 11,1 C 15,6 C 7,8 C 60 % 1021,6 hPa 0,0 l/m 2 min 0 min 818 W/m 19,3 km/h (3 Bft) 97,87 %
10.04.2022 13:52 11,1 C 15,6 C 7,8 C 60 % 1021,5 hPa 0,0 l/m 2 min 0 min 859 W/m 12,9 km/h (3 Bft) 97,83 %
10.04.2022 13:54 11,2 C 15,0 C 7,8 C 59 % 1021,6 hPa 0,0 l/m 2 min 0 min 872 W/m 16,1 km/h (3 Bft) 97,87 %
10.04.2022 13:56 11,3 C 15,6 C 7,8 C 60 % 1021,5 hPa 0,0 l/m 2 min 0 min 911 W/m 12,9 km/h (3 Bft) 95,74 %
10.04.2022 13:58 11,4 C 15,6 C 7,8 C 60 % 1021,5 hPa 0,0 l/m 2 min 0 min 924 W/m 22,5 km/h (4 Bft) 97,87 %
10.04.2022 14:00 11,7 C 16,7 C 8,3 C 60 % 1021,6 hPa 0,0 l/m 2 min 0 min 971 W/m 29,0 km/h (5 Bft) 97,87 %
10.04.2022 14:02 11,8 C 16,7 C 8,3 C 59 % 1021,5 hPa 0,0 l/m 2 min 0 min 962 W/m 19,3 km/h (3 Bft) 95,74 %
10.04.2022 14:04 11,9 C 14,4 C 7,8 C 58 % 1021,6 hPa 0,0 l/m 2 min 0 min 486 W/m 25,7 km/h (4 Bft) 97,83 %
10.04.2022 14:06 11,8 C 13,3 C 7,2 C 57 % 1021,6 hPa 0,0 l/m 0 min 0 min 174 W/m 25,7 km/h (4 Bft) 98,31 %
10.04.2022 14:08 11,6 C 12,2 C 6,7 C 55 % 1021,6 hPa 0,0 l/m 0 min 0 min 170 W/m 22,5 km/h (4 Bft) 97,14 %
10.04.2022 14:10 11,4 C 12,2 C 6,7 C 55 % 1021,6 hPa 0,0 l/m 0 min 0 min 249 W/m 16,1 km/h (3 Bft) 97,87 %
10.04.2022 14:12 11,4 C 13,9 C 6,7 C 55 % 1021,6 hPa 0,0 l/m 2 min 0 min 849 W/m 16,1 km/h (3 Bft) 97,87 %
10.04.2022 14:14 11,4 C 15,0 C 6,7 C 55 % 1021,6 hPa 0,0 l/m 2 min 0 min 820 W/m 19,3 km/h (3 Bft) 95,74 %
10.04.2022 14:16 11,4 C 15,0 C 7,2 C 55 % 1021,6 hPa 0,0 l/m 2 min 0 min 823 W/m 19,3 km/h (3 Bft) 97,83 %
10.04.2022 14:18 11,5 C 15,6 C 7,2 C 56 % 1021,6 hPa 0,0 l/m 2 min 0 min 860 W/m 12,9 km/h (3 Bft) 95,74 %
10.04.2022 14:20 11,6 C 16,1 C 7,2 C 55 % 1021,6 hPa 0,0 l/m 2 min 0 min 882 W/m 12,9 km/h (3 Bft) 97,87 %
10.04.2022 14:22 11,7 C 16,7 C 7,2 C 54 % 1021,5 hPa 0,0 l/m 2 min 0 min 885 W/m 12,9 km/h (3 Bft) 95,74 %
10.04.2022 14:24 11,8 C 17,2 C 7,8 C 56 % 1021,5 hPa 0,0 l/m 2 min 0 min 907 W/m 16,1 km/h (3 Bft) 97,87 %
10.04.2022 14:26 11,9 C 17,8 C 7,8 C 55 % 1021,5 hPa 0,0 l/m 2 min 0 min 893 W/m 16,1 km/h (3 Bft) 100,00 %
10.04.2022 14:28 12,1 C 15,6 C 7,8 C 55 % 1021,5 hPa 0,0 l/m 2 min 0 min 748 W/m 12,9 km/h (3 Bft) 97,83 %
10.04.2022 14:30 12,0 C 14,4 C 7,2 C 54 % 1021,5 hPa 0,0 l/m 0 min 0 min 190 W/m 6,4 km/h (2 Bft) 100,00 %
10.04.2022 14:32 11,9 C 12,8 C 7,2 C 54 % 1021,6 hPa 0,0 l/m 0 min 0 min 186 W/m 16,1 km/h (3 Bft) 100,00 %
10.04.2022 14:34 11,9 C 12,2 C 7,2 C 54 % 1021,5 hPa 0,0 l/m 0 min 0 min 164 W/m 12,9 km/h (3 Bft) 100,00 %
10.04.2022 14:36 11,8 C 11,7 C 6,7 C 54 % 1021,5 hPa 0,0 l/m 0 min 0 min 156 W/m 19,3 km/h (3 Bft) 98,28 %
10.04.2022 14:38 11,7 C 11,7 C 6,7 C 54 % 1021,5 hPa 0,0 l/m 0 min 0 min 165 W/m 25,7 km/h (4 Bft) 100,00 %
10.04.2022 14:40 11,5 C 12,8 C 6,7 C 54 % 1021,5 hPa 0,0 l/m 2 min 0 min 609 W/m 16,1 km/h (3 Bft) 97,83 %
10.04.2022 14:42 11,4 C 12,8 C 6,7 C 54 % 1021,5 hPa 0,0 l/m 2 min 0 min 577 W/m 12,9 km/h (3 Bft) 100,00 %
10.04.2022 14:44 11,3 C 12,2 C 6,7 C 54 % 1021,5 hPa 0,0 l/m 0 min 0 min 125 W/m 12,9 km/h (3 Bft) 100,00 %
10.04.2022 14:46 11,3 C 13,3 C 6,7 C 54 % 1021,5 hPa 0,0 l/m 0 min 0 min 307 W/m 12,9 km/h (3 Bft) 97,87 %
10.04.2022 14:48 11,3 C 15,0 C 6,7 C 55 % 1021,5 hPa 0,0 l/m 2 min 0 min 816 W/m 16,1 km/h (3 Bft) 100,00 %
10.04.2022 14:50 11,3 C 16,1 C 7,2 C 53 % 1021,4 hPa 0,0 l/m 2 min 0 min 804 W/m 16,1 km/h (3 Bft) 100,00 %
10.04.2022 14:52 11,5 C 16,7 C 7,2 C 53 % 1021,4 hPa 0,0 l/m 2 min 0 min 780 W/m 16,1 km/h (3 Bft) 100,00 %
10.04.2022 14:54 11,6 C 15,6 C 7,2 C 53 % 1021,4 hPa 0,0 l/m 2 min 0 min 576 W/m 12,9 km/h (3 Bft) 97,87 %
10.04.2022 14:56 11,6 C 15,0 C 7,2 C 52 % 1021,4 hPa 0,0 l/m 0 min 0 min 186 W/m 9,7 km/h (2 Bft) 97,87 %
10.04.2022 14:58 11,6 C 15,6 C 7,2 C 52 % 1021,3 hPa 0,0 l/m 2 min 0 min 622 W/m 12,9 km/h (3 Bft) 100,00 %
10.04.2022 15:00 11,7 C 17,2 C 7,2 C 53 % 1021,3 hPa 0,0 l/m 2 min 0 min 801 W/m 9,7 km/h (2 Bft) 97,87 %
10.04.2022 15:02 11,9 C 17,2 C 7,2 C 53 % 1021,3 hPa 0,0 l/m 2 min 0 min 777 W/m 9,7 km/h (2 Bft) 100,00 %
10.04.2022 15:04 12,1 C 18,3 C 7,2 C 53 % 1021,3 hPa 0,0 l/m 2 min 0 min 783 W/m 16,1 km/h (3 Bft) 100,00 %
10.04.2022 15:06 12,2 C 18,9 C 7,8 C 54 % 1021,3 hPa 0,0 l/m 2 min 0 min 756 W/m 16,1 km/h (3 Bft) 98,31 %
10.04.2022 15:08 12,3 C 18,9 C 7,8 C 52 % 1021,3 hPa 0,0 l/m 2 min 0 min 759 W/m 12,9 km/h (3 Bft) 97,14 %
10.04.2022 15:10 12,5 C 18,9 C 7,8 C 52 % 1021,2 hPa 0,0 l/m 2 min 0 min 779 W/m 12,9 km/h (3 Bft) 97,87 %
10.04.2022 15:12 12,6 C 18,9 C 7,8 C 51 % 1021,3 hPa 0,0 l/m 2 min 0 min 783 W/m 22,5 km/h (4 Bft) 97,87 %
10.04.2022 15:14 12,7 C 18,9 C 7,8 C 52 % 1021,2 hPa 0,0 l/m 2 min 0 min 778 W/m 19,3 km/h (3 Bft) 97,83 %
10.04.2022 15:16 12,7 C 18,3 C 7,8 C 51 % 1021,3 hPa 0,0 l/m 2 min 0 min 782 W/m 16,1 km/h (3 Bft) 97,87 %
10.04.2022 15:18 12,8 C 18,9 C 7,8 C 51 % 1021,2 hPa 0,0 l/m 2 min 0 min 779 W/m 9,7 km/h (2 Bft) 97,87 %
10.04.2022 15:20 12,8 C 18,3 C 7,8 C 50 % 1021,2 hPa 0,0 l/m 2 min 0 min 779 W/m 12,9 km/h (3 Bft) 95,74 %
10.04.2022 15:22 12,8 C 18,9 C 7,8 C 50 % 1021,2 hPa 0,0 l/m 2 min 0 min 782 W/m 12,9 km/h (3 Bft) 97,87 %
10.04.2022 15:24 12,9 C 18,3 C 7,8 C 49 % 1021,2 hPa 0,0 l/m 2 min 0 min 779 W/m 9,7 km/h (2 Bft) 95,74 %
10.04.2022 15:26 12,9 C 17,8 C 7,2 C 49 % 1021,2 hPa 0,0 l/m 2 min 0 min 764 W/m 12,9 km/h (3 Bft) 97,83 %
10.04.2022 15:28 12,8 C 18,3 C 7,8 C 50 % 1021,2 hPa 0,0 l/m 2 min 0 min 750 W/m 9,7 km/h (2 Bft) 95,74 %
10.04.2022 15:30 12,8 C 17,8 C 7,8 C 50 % 1021,2 hPa 0,0 l/m 2 min 0 min 749 W/m 12,9 km/h (3 Bft) 97,87 %
10.04.2022 15:32 12,8 C 18,3 C 7,8 C 49 % 1021,2 hPa 0,0 l/m 2 min 0 min 754 W/m 9,7 km/h (2 Bft) 95,74 %
10.04.2022 15:34 12,9 C 18,9 C 7,8 C 49 % 1021,1 hPa 0,0 l/m 2 min 0 min 750 W/m 12,9 km/h (3 Bft) 97,87 %
10.04.2022 15:36 13,1 C 19,4 C 7,8 C 50 % 1021,2 hPa 0,0 l/m 2 min 0 min 746 W/m 16,1 km/h (3 Bft) 97,87 %
10.04.2022 15:38 13,1 C 18,3 C 7,8 C 49 % 1021,2 hPa 0,0 l/m 2 min 0 min 742 W/m 16,1 km/h (3 Bft) 97,83 %
10.04.2022 15:40 13,2 C 18,9 C 7,8 C 50 % 1021,1 hPa 0,0 l/m 2 min 0 min 738 W/m 9,7 km/h (2 Bft) 97,87 %
10.04.2022 15:42 13,3 C 18,3 C 7,8 C 48 % 1021,1 hPa 0,0 l/m 2 min 0 min 742 W/m 16,1 km/h (3 Bft) 95,74 %
10.04.2022 15:44 13,4 C 18,9 C 7,8 C 50 % 1021,2 hPa 0,0 l/m 2 min 0 min 740 W/m 12,9 km/h (3 Bft) 97,87 %
10.04.2022 15:46 13,5 C 19,4 C 8,3 C 49 % 1021,2 hPa 0,0 l/m 2 min 0 min 732 W/m 12,9 km/h (3 Bft) 97,87 %
10.04.2022 15:48 13,6 C 20,0 C 8,3 C 49 % 1021,1 hPa 0,0 l/m 2 min 0 min 725 W/m 9,7 km/h (2 Bft) 97,87 %
10.04.2022 15:50 13,7 C 20,0 C 8,3 C 49 % 1021,1 hPa 0,0 l/m 2 min 0 min 723 W/m 12,9 km/h (3 Bft) 100,00 %
10.04.2022 15:52 13,7 C 20,0 C 8,3 C 48 % 1021,0 hPa 0,0 l/m 2 min 0 min 719 W/m 9,7 km/h (2 Bft) 100,00 %
10.04.2022 15:54 13,8 C 20,0 C 8,3 C 49 % 1021,0 hPa 0,0 l/m 2 min 0 min 714 W/m 19,3 km/h (3 Bft) 97,87 %
10.04.2022 15:56 13,8 C 19,4 C 7,8 C 48 % 1021,0 hPa 0,0 l/m 2 min 0 min 720 W/m 9,7 km/h (2 Bft) 100,00 %
10.04.2022 15:58 13,8 C 20,0 C 8,3 C 48 % 1021,0 hPa 0,0 l/m 2 min 0 min 720 W/m 9,7 km/h (2 Bft) 100,00 %
10.04.2022 16:00 13,9 C 20,0 C 8,3 C 48 % 1021,0 hPa 0,0 l/m 2 min 0 min 715 W/m 9,7 km/h (2 Bft) 100,00 %
10.04.2022 16:02 14,0 C 21,1 C 8,3 C 49 % 1020,9 hPa 0,0 l/m 2 min 0 min 717 W/m 16,1 km/h (3 Bft) 100,00 %
10.04.2022 16:04 14,1 C 21,7 C 8,9 C 48 % 1020,9 hPa 0,0 l/m 2 min 0 min 718 W/m 12,9 km/h (3 Bft) 97,87 %
10.04.2022 16:06 14,1 C 21,1 C 8,3 C 48 % 1020,9 hPa 0,0 l/m 2 min 0 min 728 W/m 16,1 km/h (3 Bft) 100,00 %
10.04.2022 16:08 14,1 C 20,6 C 8,3 C 48 % 1020,9 hPa 0,0 l/m 2 min 0 min 724 W/m 12,9 km/h (3 Bft) 100,00 %
10.04.2022 16:10 13,9 C 20,0 C 8,3 C 47 % 1020,9 hPa 0,0 l/m 2 min 0 min 741 W/m 12,9 km/h (3 Bft) 100,00 %
10.04.2022 16:12 13,8 C 21,1 C 8,3 C 47 % 1020,9 hPa 0,0 l/m 2 min 0 min 742 W/m 12,9 km/h (3 Bft) 97,87 %
10.04.2022 16:14 13,7 C 21,1 C 8,3 C 46 % 1020,9 hPa 0,0 l/m 2 min 0 min 736 W/m 16,1 km/h (3 Bft) 100,00 %
10.04.2022 16:16 13,7 C 21,1 C 8,3 C 47 % 1020,9 hPa 0,0 l/m 2 min 0 min 718 W/m 9,7 km/h (2 Bft) 100,00 %
10.04.2022 16:18 13,7 C 21,1 C 8,3 C 47 % 1020,9 hPa 0,0 l/m 2 min 0 min 704 W/m 9,7 km/h (2 Bft) 97,87 %
10.04.2022 16:20 13,7 C 21,1 C 8,3 C 47 % 1020,9 hPa 0,0 l/m 2 min 0 min 695 W/m 12,9 km/h (3 Bft) 100,00 %
10.04.2022 16:22 13,6 C 20,0 C 8,3 C 47 % 1020,9 hPa 0,0 l/m 2 min 0 min 700 W/m 9,7 km/h (2 Bft) 95,74 %
10.04.2022 16:24 13,6 C 20,6 C 8,3 C 48 % 1020,9 hPa 0,0 l/m 2 min 0 min 697 W/m 9,7 km/h (2 Bft) 95,74 %
10.04.2022 16:26 13,6 C 20,6 C 8,3 C 47 % 1020,9 hPa 0,0 l/m 2 min 0 min 679 W/m 16,1 km/h (3 Bft) 95,65 %
10.04.2022 16:28 13,6 C 21,1 C 8,9 C 48 % 1020,9 hPa 0,0 l/m 2 min 0 min 686 W/m 9,7 km/h (2 Bft) 95,74 %
10.04.2022 16:30 13,5 C 21,1 C 8,3 C 48 % 1020,9 hPa 0,0 l/m 2 min 0 min 699 W/m 12,9 km/h (3 Bft) 95,74 %
10.04.2022 16:32 13,3 C 20,0 C 8,3 C 47 % 1020,9 hPa 0,0 l/m 2 min 0 min 715 W/m 16,1 km/h (3 Bft) 93,62 %
10.04.2022 16:34 13,3 C 19,4 C 8,9 C 47 % 1020,9 hPa 0,0 l/m 2 min 0 min 730 W/m 12,9 km/h (3 Bft) 95,74 %
10.04.2022 16:36 13,3 C 17,2 C 8,3 C 48 % 1020,9 hPa 0,0 l/m 2 min 0 min 414 W/m 16,1 km/h (3 Bft) 93,62 %
10.04.2022 16:38 13,2 C 15,0 C 8,3 C 49 % 1020,9 hPa 0,0 l/m 0 min 0 min 173 W/m 12,9 km/h (3 Bft) 95,65 %
10.04.2022 16:40 13,1 C 17,2 C 8,3 C 50 % 1020,9 hPa 0,0 l/m 0 min 0 min 176 W/m 6,4 km/h (2 Bft) 95,74 %
10.04.2022 16:42 13,1 C 17,2 C 8,9 C 51 % 1020,9 hPa 0,0 l/m 2 min 0 min 574 W/m 12,9 km/h (3 Bft) 93,62 %
10.04.2022 16:44 13,1 C 18,9 C 8,9 C 49 % 1020,9 hPa 0,0 l/m 2 min 0 min 315 W/m 9,7 km/h (2 Bft) 95,74 %
10.04.2022 16:46 13,0 C 18,3 C 8,3 C 50 % 1020,9 hPa 0,0 l/m 2 min 0 min 619 W/m 6,4 km/h (2 Bft) 95,74 %
10.04.2022 16:48 12,9 C 18,9 C 8,3 C 48 % 1020,9 hPa 0,0 l/m 2 min 0 min 593 W/m 9,7 km/h (2 Bft) 95,65 %
10.04.2022 16:50 12,8 C 19,4 C 8,3 C 48 % 1020,8 hPa 0,0 l/m 2 min 0 min 589 W/m 12,9 km/h (3 Bft) 93,62 %
10.04.2022 16:52 12,9 C 21,1 C 8,3 C 50 % 1020,8 hPa 0,0 l/m 2 min 0 min 573 W/m 6,4 km/h (2 Bft) 95,74 %
10.04.2022 16:54 13,0 C 20,6 C 8,9 C 49 % 1020,8 hPa 0,0 l/m 2 min 0 min 581 W/m 12,9 km/h (3 Bft) 95,74 %
10.04.2022 16:56 13,0 C 20,6 C 8,3 C 49 % 1020,8 hPa 0,0 l/m 2 min 0 min 574 W/m 12,9 km/h (3 Bft) 95,74 %
10.04.2022 16:58 13,1 C 20,6 C 8,3 C 48 % 1020,8 hPa 0,0 l/m 2 min 0 min 563 W/m 9,7 km/h (2 Bft) 95,74 %
10.04.2022 17:00 13,2 C 20,0 C 8,3 C 48 % 1020,8 hPa 0,0 l/m 2 min 0 min 562 W/m 6,4 km/h (2 Bft) 93,48 %
10.04.2022 17:02 13,2 C 20,6 C 8,3 C 49 % 1020,8 hPa 0,0 l/m 2 min 0 min 552 W/m 6,4 km/h (2 Bft) 97,87 %
10.04.2022 17:04 13,2 C 21,1 C 8,3 C 49 % 1020,8 hPa 0,0 l/m 2 min 0 min 556 W/m 6,4 km/h (2 Bft) 95,74 %
10.04.2022 17:06 13,3 C 21,7 C 8,3 C 48 % 1020,8 hPa 0,0 l/m 2 min 0 min 553 W/m 6,4 km/h (2 Bft) 95,74 %
10.04.2022 17:08 13,3 C 21,7 C 8,9 C 49 % 1020,8 hPa 0,0 l/m 2 min 0 min 540 W/m 9,7 km/h (2 Bft) 91,49 %
10.04.2022 17:10 13,4 C 21,1 C 8,9 C 48 % 1020,7 hPa 0,0 l/m 2 min 0 min 521 W/m 9,7 km/h (2 Bft) 97,87 %
10.04.2022 17:12 13,4 C 21,1 C 8,9 C 48 % 1020,8 hPa 0,0 l/m 2 min 0 min 489 W/m 6,4 km/h (2 Bft) 95,65 %
10.04.2022 17:14 13,3 C 19,4 C 8,3 C 48 % 1020,8 hPa 0,0 l/m 2 min 0 min 483 W/m 9,7 km/h (2 Bft) 97,87 %
10.04.2022 17:16 13,3 C 19,4 C 8,9 C 49 % 1020,8 hPa 0,0 l/m 2 min 0 min 469 W/m 6,4 km/h (2 Bft) 97,87 %
10.04.2022 17:18 13,3 C 20,0 C 8,9 C 49 % 1020,7 hPa 0,0 l/m 2 min 0 min 481 W/m 9,7 km/h (2 Bft) 95,74 %
10.04.2022 17:20 13,4 C 20,0 C 8,9 C 48 % 1020,7 hPa 0,0 l/m 2 min 0 min 494 W/m 6,4 km/h (2 Bft) 97,87 %
10.04.2022 17:22 13,5 C 19,4 C 8,3 C 48 % 1020,7 hPa 0,0 l/m 2 min 0 min 493 W/m 12,9 km/h (3 Bft) 95,74 %
10.04.2022 17:24 13,5 C 19,4 C 8,3 C 47 % 1020,7 hPa 0,0 l/m 2 min 0 min 498 W/m 12,9 km/h (3 Bft) 97,83 %
10.04.2022 17:26 13,5 C 20,0 C 8,9 C 48 % 1020,7 hPa 0,0 l/m 2 min 0 min 500 W/m 16,1 km/h (3 Bft) 95,74 %
10.04.2022 17:28 13,5 C 19,4 C 8,9 C 48 % 1020,7 hPa 0,0 l/m 2 min 0 min 484 W/m 12,9 km/h (3 Bft) 97,87 %
10.04.2022 17:30 13,6 C 18,9 C 8,3 C 47 % 1020,7 hPa 0,0 l/m 2 min 0 min 483 W/m 9,7 km/h (2 Bft) 97,87 %
10.04.2022 17:32 13,6 C 19,4 C 8,3 C 46 % 1020,7 hPa 0,0 l/m 2 min 0 min 468 W/m 6,4 km/h (2 Bft) 95,74 %
10.04.2022 17:34 13,7 C 19,4 C 8,3 C 48 % 1020,6 hPa 0,0 l/m 2 min 0 min 455 W/m 9,7 km/h (2 Bft) 97,87 %
10.04.2022 17:36 13,7 C 19,4 C 8,3 C 46 % 1020,7 hPa 0,0 l/m 2 min 0 min 435 W/m 9,7 km/h (2 Bft) 97,83 %
10.04.2022 17:38 13,7 C 18,9 C 8,3 C 46 % 1020,7 hPa 0,0 l/m 2 min 0 min 417 W/m 12,9 km/h (3 Bft) 100,00 %
10.04.2022 17:40 13,6 C 18,3 C 8,3 C 47 % 1020,7 hPa 0,0 l/m 2 min 0 min 444 W/m 12,9 km/h (3 Bft) 97,87 %
10.04.2022 17:42 13,4 C 18,9 C 8,9 C 46 % 1020,6 hPa 0,0 l/m 2 min 0 min 433 W/m 12,9 km/h (3 Bft) 100,00 %
10.04.2022 17:44 13,4 C 18,9 C 8,3 C 47 % 1020,6 hPa 0,0 l/m 2 min 0 min 402 W/m 6,4 km/h (2 Bft) 97,87 %
10.04.2022 17:46 13,4 C 19,4 C 8,9 C 46 % 1020,6 hPa 0,0 l/m 2 min 0 min 389 W/m 6,4 km/h (2 Bft) 100,00 %
10.04.2022 17:48 13,4 C 19,4 C 8,9 C 45 % 1020,6 hPa 0,0 l/m 2 min 0 min 372 W/m 6,4 km/h (2 Bft) 100,00 %
10.04.2022 17:50 13,5 C 18,9 C 8,3 C 46 % 1020,5 hPa 0,0 l/m 2 min 0 min 370 W/m 9,7 km/h (2 Bft) 100,00 %
10.04.2022 17:52 13,6 C 18,9 C 8,9 C 47 % 1020,5 hPa 0,0 l/m 2 min 0 min 384 W/m 6,4 km/h (2 Bft) 97,87 %
10.04.2022 17:54 13,7 C 18,9 C 8,9 C 47 % 1020,5 hPa 0,0 l/m 2 min 0 min 366 W/m 6,4 km/h (2 Bft) 100,00 %
10.04.2022 17:56 13,8 C 18,9 C 8,9 C 47 % 1020,5 hPa 0,0 l/m 2 min 0 min 365 W/m 16,1 km/h (3 Bft) 97,87 %
10.04.2022 17:58 13,8 C 18,9 C 8,9 C 46 % 1020,5 hPa 0,0 l/m 2 min 0 min 349 W/m 6,4 km/h (2 Bft) 100,00 %
10.04.2022 18:00 13,7 C 18,9 C 8,9 C 46 % 1020,5 hPa 0,0 l/m 2 min 0 min 360 W/m 6,4 km/h (2 Bft) 100,00 %
10.04.2022 18:02 13,6 C 18,9 C 8,9 C 46 % 1020,5 hPa 0,0 l/m 2 min 0 min 358 W/m 12,9 km/h (3 Bft) 97,87 %
10.04.2022 18:04 13,6 C 18,3 C 8,9 C 45 % 1020,5 hPa 0,0 l/m 2 min 0 min 355 W/m 16,1 km/h (3 Bft) 100,00 %
10.04.2022 18:08 13,6 C 18,3 C 8,9 C 44 % 1020,5 hPa 0,0 l/m 4 min 0 min 324 W/m 12,9 km/h (3 Bft) 98,94 %
10.04.2022 18:10 13,6 C 18,3 C 8,9 C 45 % 1020,5 hPa 0,0 l/m 2 min 0 min 311 W/m 6,4 km/h (2 Bft) 97,83 %
10.04.2022 18:12 13,4 C 18,3 C 8,3 C 45 % 1020,5 hPa 0,0 l/m 2 min 0 min 303 W/m 9,7 km/h (2 Bft) 97,87 %
10.04.2022 18:14 13,4 C 18,3 C 8,3 C 46 % 1020,5 hPa 0,0 l/m 2 min 0 min 301 W/m 12,9 km/h (3 Bft) 97,87 %
10.04.2022 18:16 13,4 C 18,3 C 8,3 C 46 % 1020,5 hPa 0,0 l/m 2 min 0 min 294 W/m 3,2 km/h (1 Bft) 97,87 %
10.04.2022 18:18 13,4 C 18,9 C 8,3 C 46 % 1020,5 hPa 0,0 l/m 2 min 0 min 270 W/m 3,2 km/h (1 Bft) 97,87 %
10.04.2022 18:20 13,5 C 18,9 C 8,9 C 46 % 1020,5 hPa 0,0 l/m 2 min 0 min 279 W/m 6,4 km/h (2 Bft) 97,87 %
10.04.2022 18:22 13,6 C 18,3 C 8,9 C 46 % 1020,5 hPa 0,0 l/m 2 min 0 min 265 W/m 6,4 km/h (2 Bft) 97,83 %
10.04.2022 18:24 13,6 C 17,8 C 8,3 C 45 % 1020,5 hPa 0,0 l/m 2 min 0 min 280 W/m 6,4 km/h (2 Bft) 97,87 %
10.04.2022 18:26 13,4 C 18,3 C 8,3 C 45 % 1020,5 hPa 0,0 l/m 2 min 0 min 257 W/m 6,4 km/h (2 Bft) 97,87 %
10.04.2022 18:28 13,4 C 18,3 C 8,9 C 45 % 1020,5 hPa 0,0 l/m 2 min 0 min 230 W/m 6,4 km/h (2 Bft) 97,87 %
10.04.2022 18:30 13,4 C 17,8 C 8,3 C 45 % 1020,5 hPa 0,0 l/m 2 min 0 min 255 W/m 6,4 km/h (2 Bft) 97,87 %
10.04.2022 18:32 13,3 C 17,8 C 8,3 C 45 % 1020,5 hPa 0,0 l/m 2 min 0 min 258 W/m 6,4 km/h (2 Bft) 93,62 %
10.04.2022 18:34 13,3 C 17,2 C 8,3 C 46 % 1020,5 hPa 0,0 l/m 2 min 0 min 230 W/m 9,7 km/h (2 Bft) 97,83 %
10.04.2022 18:36 13,3 C 17,2 C 7,8 C 46 % 1020,5 hPa 0,0 l/m 2 min 0 min 224 W/m 9,7 km/h (2 Bft) 97,87 %
10.04.2022 18:38 13,2 C 16,1 C 7,8 C 44 % 1020,4 hPa 0,0 l/m 0 min 0 min 123 W/m 6,4 km/h (2 Bft) 97,87 %
10.04.2022 18:40 13,0 C 16,1 C 7,8 C 45 % 1020,4 hPa 0,0 l/m 2 min 0 min 142 W/m 6,4 km/h (2 Bft) 97,87 %
10.04.2022 18:42 13,1 C 16,7 C 7,8 C 46 % 1020,4 hPa 0,0 l/m 2 min 0 min 194 W/m 6,4 km/h (2 Bft) 97,87 %
10.04.2022 18:44 13,1 C 16,7 C 7,8 C 47 % 1020,4 hPa 0,0 l/m 2 min 0 min 177 W/m 3,2 km/h (1 Bft) 97,87 %
10.04.2022 18:46 13,2 C 15,6 C 7,8 C 46 % 1020,4 hPa 0,0 l/m 2 min 0 min 156 W/m 12,9 km/h (3 Bft) 97,83 %
10.04.2022 18:48 13,1 C 14,4 C 7,8 C 46 % 1020,4 hPa 0,0 l/m 0 min 0 min 111 W/m 3,2 km/h (1 Bft) 97,87 %
10.04.2022 18:50 13,0 C 13,3 C 7,8 C 46 % 1020,4 hPa 0,0 l/m 0 min 0 min 86 W/m 6,4 km/h (2 Bft) 97,87 %
10.04.2022 18:52 12,9 C 12,8 C 7,8 C 46 % 1020,3 hPa 0,0 l/m 0 min 0 min 81 W/m 6,4 km/h (2 Bft) 97,87 %
10.04.2022 18:54 12,8 C 12,8 C 7,8 C 47 % 1020,4 hPa 0,0 l/m 0 min 0 min 79 W/m 6,4 km/h (2 Bft) 97,87 %
10.04.2022 18:56 12,7 C 12,8 C 7,8 C 46 % 1020,3 hPa 0,0 l/m 0 min 0 min 77 W/m 6,4 km/h (2 Bft) 97,87 %
10.04.2022 18:58 12,7 C 12,2 C 7,8 C 46 % 1020,3 hPa 0,0 l/m 0 min 0 min 77 W/m 3,2 km/h (1 Bft) 97,83 %
10.04.2022 19:00 12,6 C 12,2 C 7,2 C 46 % 1020,3 hPa 0,0 l/m 0 min 0 min 77 W/m 9,7 km/h (2 Bft) 97,87 %
10.04.2022 19:02 12,4 C 12,2 C 7,8 C 46 % 1020,3 hPa 0,0 l/m 0 min 0 min 76 W/m 6,4 km/h (2 Bft) 100,00 %
10.04.2022 19:04 12,3 C 12,2 C 7,2 C 46 % 1020,3 hPa 0,0 l/m 0 min 0 min 73 W/m 3,2 km/h (1 Bft) 97,87 %
10.04.2022 19:06 12,3 C 12,2 C 7,2 C 47 % 1020,3 hPa 0,0 l/m 0 min 0 min 70 W/m 3,2 km/h (1 Bft) 97,87 %
10.04.2022 19:08 12,2 C 11,7 C 7,2 C 46 % 1020,4 hPa 0,0 l/m 0 min 0 min 68 W/m 3,2 km/h (1 Bft) 95,65 %
10.04.2022 19:10 12,1 C 11,7 C 7,2 C 47 % 1020,3 hPa 0,0 l/m 0 min 0 min 66 W/m 3,2 km/h (1 Bft) 97,87 %
10.04.2022 19:12 12,0 C 11,7 C 7,2 C 46 % 1020,3 hPa 0,0 l/m 0 min 0 min 62 W/m 3,2 km/h (1 Bft) 97,87 %
10.04.2022 19:14 11,9 C 11,1 C 6,7 C 46 % 1020,3 hPa 0,0 l/m 0 min 0 min 57 W/m 3,2 km/h (1 Bft) 97,87 %
10.04.2022 19:16 11,8 C 11,1 C 6,7 C 46 % 1020,4 hPa 0,0 l/m 0 min 0 min 53 W/m 0,0 km/h (0 Bft) 97,87 %
10.04.2022 19:18 11,8 C 11,1 C 6,7 C 48 % 1020,3 hPa 0,0 l/m 0 min 0 min 50 W/m 3,2 km/h (1 Bft) 98,00 %
10.04.2022 19:20 11,7 C 11,1 C 6,7 C 49 % 1020,3 hPa 0,0 l/m 0 min 0 min 48 W/m 3,2 km/h (1 Bft) 97,14 %
10.04.2022 19:22 11,7 C 10,6 C 6,7 C 50 % 1020,4 hPa 0,0 l/m 0 min 0 min 44 W/m 3,2 km/h (1 Bft) 98,28 %
10.04.2022 19:24 11,6 C 10,6 C 6,7 C 50 % 1020,3 hPa 0,0 l/m 0 min 0 min 42 W/m 0,0 km/h (0 Bft) 97,67 %
10.04.2022 19:26 11,6 C 10,6 C 6,7 C 50 % 1020,4 hPa 0,0 l/m 0 min 0 min 40 W/m 3,2 km/h (1 Bft) 93,62 %
10.04.2022 19:28 11,5 C 10,6 C 6,7 C 49 % 1020,4 hPa 0,0 l/m 0 min 0 min 39 W/m 6,4 km/h (2 Bft) 97,87 %
10.04.2022 19:30 11,4 C 10,6 C 6,1 C 49 % 1020,3 hPa 0,0 l/m 0 min 0 min 38 W/m 3,2 km/h (1 Bft) 97,87 %
10.04.2022 19:32 11,4 C 10,0 C 6,1 C 49 % 1020,4 hPa 0,0 l/m 0 min 0 min 37 W/m 3,2 km/h (1 Bft) 97,56 %
10.04.2022 19:34 11,3 C 10,0 C 6,1 C 50 % 1020,4 hPa 0,0 l/m 0 min 0 min 35 W/m 0,0 km/h (0 Bft) 97,92 %
10.04.2022 19:36 11,3 C 10,0 C 6,1 C 50 % 1020,4 hPa 0,0 l/m 0 min 0 min 34 W/m 3,2 km/h (1 Bft) 95,65 %
10.04.2022 19:38 11,3 C 10,0 C 6,1 C 51 % 1020,4 hPa 0,0 l/m 0 min 0 min 33 W/m 3,2 km/h (1 Bft) 95,74 %
10.04.2022 19:40 11,2 C 10,0 C 6,1 C 51 % 1020,4 hPa 0,0 l/m 0 min 0 min 32 W/m 3,2 km/h (1 Bft) 95,74 %
10.04.2022 19:42 11,2 C 9,4 C 6,1 C 51 % 1020,4 hPa 0,0 l/m 0 min 0 min 30 W/m 3,2 km/h (1 Bft) 95,74 %
10.04.2022 19:44 11,1 C 9,4 C 5,6 C 51 % 1020,4 hPa 0,0 l/m 0 min 0 min 28 W/m 3,2 km/h (1 Bft) 95,74 %
10.04.2022 19:46 11,1 C 9,4 C 5,6 C 50 % 1020,4 hPa 0,0 l/m 0 min 0 min 26 W/m 0,0 km/h (0 Bft) 91,49 %
10.04.2022 19:48 11,0 C 9,4 C 5,6 C 50 % 1020,5 hPa 0,0 l/m 0 min 0 min 25 W/m 0,0 km/h (0 Bft) 95,65 %
10.04.2022 19:50 10,9 C 9,4 C 5,6 C 51 % 1020,5 hPa 0,0 l/m 0 min 0 min 24 W/m 0,0 km/h (0 Bft) 95,74 %
10.04.2022 19:52 10,9 C 9,4 C 5,6 C 52 % 1020,5 hPa 0,0 l/m 0 min 0 min 22 W/m 3,2 km/h (1 Bft) 97,87 %
10.04.2022 19:54 10,8 C 9,4 C 5,6 C 51 % 1020,4 hPa 0,0 l/m 0 min 0 min 21 W/m 0,0 km/h (0 Bft) 95,74 %
10.04.2022 19:56 10,7 C 9,4 C 5,6 C 52 % 1020,4 hPa 0,0 l/m 0 min 0 min 20 W/m 0,0 km/h (0 Bft) 97,87 %
10.04.2022 19:58 10,7 C 8,9 C 5,6 C 51 % 1020,4 hPa 0,0 l/m 0 min 0 min 18 W/m 3,2 km/h (1 Bft) 95,74 %
10.04.2022 20:00 10,6 C 8,9 C 5,0 C 50 % 1020,4 hPa 0,0 l/m 0 min 0 min 17 W/m 3,2 km/h (1 Bft) 91,49 %
10.04.2022 20:02 10,6 C 8,9 C 5,0 C 50 % 1020,4 hPa 0,0 l/m 0 min 0 min 15 W/m 0,0 km/h (0 Bft) 95,65 %
10.04.2022 20:04 10,5 C 8,9 C 5,0 C 51 % 1020,4 hPa 0,0 l/m 0 min 0 min 12 W/m 3,2 km/h (1 Bft) 95,74 %
10.04.2022 20:06 10,4 C 8,9 C 5,0 C 52 % 1020,4 hPa 0,0 l/m 0 min 0 min 12 W/m 3,2 km/h (1 Bft) 100,00 %
10.04.2022 20:08 10,4 C 8,9 C 5,0 C 51 % 1020,4 hPa 0,0 l/m 0 min 0 min 11 W/m 6,4 km/h (2 Bft) 97,87 %
10.04.2022 20:10 10,3 C 8,9 C 5,0 C 52 % 1020,5 hPa 0,0 l/m 0 min 0 min 8 W/m 6,4 km/h (2 Bft) 100,00 %
10.04.2022 20:12 10,3 C 8,9 C 5,0 C 52 % 1020,5 hPa 0,0 l/m 0 min 0 min 7 W/m 9,7 km/h (2 Bft) 100,00 %
10.04.2022 20:14 10,2 C 8,9 C 5,0 C 52 % 1020,5 hPa 0,0 l/m 0 min 0 min 6 W/m 3,2 km/h (1 Bft) 100,00 %
10.04.2022 20:16 10,1 C 8,9 C 5,0 C 53 % 1020,5 hPa 0,0 l/m 0 min 0 min 3 W/m 6,4 km/h (2 Bft) 100,00 %
10.04.2022 20:18 10,1 C 8,9 C 5,0 C 53 % 1020,5 hPa 0,0 l/m 0 min 0 min 0 W/m 6,4 km/h (2 Bft) 97,87 %
10.04.2022 20:20 10,1 C 8,3 C 5,0 C 53 % 1020,5 hPa 0,0 l/m 0 min 0 min 0 W/m 6,4 km/h (2 Bft) 100,00 %
10.04.2022 20:22 10,0 C 8,3 C 5,0 C 53 % 1020,6 hPa 0,0 l/m 0 min 0 min 0 W/m 6,4 km/h (2 Bft) 97,87 %
10.04.2022 20:24 9,9 C 8,3 C 5,0 C 53 % 1020,6 hPa 0,0 l/m 0 min 0 min 0 W/m 6,4 km/h (2 Bft) 100,00 %
10.04.2022 20:26 9,9 C 8,3 C 5,0 C 54 % 1020,6 hPa 0,0 l/m 0 min 0 min 0 W/m 3,2 km/h (1 Bft) 93,62 %
10.04.2022 20:28 9,8 C 8,3 C 5,0 C 54 % 1020,6 hPa 0,0 l/m 0 min 0 min 0 W/m 3,2 km/h (1 Bft) 97,87 %
10.04.2022 20:30 9,8 C 8,3 C 5,0 C 54 % 1020,5 hPa 0,0 l/m 0 min 0 min 0 W/m 6,4 km/h (2 Bft) 97,87 %
10.04.2022 20:32 9,8 C 8,3 C 5,0 C 55 % 1020,5 hPa 0,0 l/m 0 min 0 min 0 W/m 3,2 km/h (1 Bft) 97,87 %
10.04.2022 20:34 9,7 C 8,3 C 5,0 C 55 % 1020,5 hPa 0,0 l/m 0 min 0 min 0 W/m 6,4 km/h (2 Bft) 97,87 %
10.04.2022 20:36 9,6 C 8,3 C 5,0 C 55 % 1020,5 hPa 0,0 l/m 0 min 0 min 0 W/m 3,2 km/h (1 Bft) 97,83 %
10.04.2022 20:38 9,6 C 8,3 C 4,4 C 55 % 1020,6 hPa 0,0 l/m 0 min 0 min 0 W/m 3,2 km/h (1 Bft) 97,87 %
10.04.2022 20:40 9,6 C 7,8 C 4,4 C 55 % 1020,6 hPa 0,0 l/m 0 min 0 min 0 W/m 3,2 km/h (1 Bft) 95,74 %
10.04.2022 20:42 9,5 C 7,8 C 4,4 C 56 % 1020,6 hPa 0,0 l/m 0 min 0 min 0 W/m 3,2 km/h (1 Bft) 97,87 %
10.04.2022 20:44 9,4 C 7,8 C 4,4 C 56 % 1020,6 hPa 0,0 l/m 0 min 0 min 0 W/m 3,2 km/h (1 Bft) 97,87 %
10.04.2022 20:46 9,4 C 7,8 C 4,4 C 56 % 1020,7 hPa 0,0 l/m 0 min 0 min 0 W/m 3,2 km/h (1 Bft) 96,55 %
10.04.2022 20:48 9,3 C 7,8 C 4,4 C 56 % 1020,6 hPa 0,0 l/m 0 min 0 min 0 W/m 3,2 km/h (1 Bft) 97,87 %
10.04.2022 20:50 9,3 C 7,8 C 4,4 C 56 % 1020,6 hPa 0,0 l/m 0 min 0 min 0 W/m 3,2 km/h (1 Bft) 97,87 %
10.04.2022 20:52 9,3 C 7,8 C 4,4 C 56 % 1020,6 hPa 0,0 l/m 0 min 0 min 0 W/m 3,2 km/h (1 Bft) 97,83 %
10.04.2022 20:54 9,2 C 7,8 C 3,9 C 56 % 1020,6 hPa 0,0 l/m 0 min 0 min 0 W/m 3,2 km/h (1 Bft) 100,00 %
10.04.2022 20:56 9,2 C 7,8 C 3,9 C 57 % 1020,7 hPa 0,0 l/m 0 min 0 min 0 W/m 3,2 km/h (1 Bft) 100,00 %
10.04.2022 20:58 9,1 C 7,8 C 4,4 C 57 % 1020,7 hPa 0,0 l/m 0 min 0 min 0 W/m 3,2 km/h (1 Bft) 100,00 %
10.04.2022 21:00 9,1 C 7,8 C 3,9 C 57 % 1020,7 hPa 0,0 l/m 0 min 0 min 0 W/m 3,2 km/h (1 Bft) 100,00 %
10.04.2022 21:02 9,1 C 7,8 C 3,9 C 57 % 1020,7 hPa 0,0 l/m 0 min 0 min 0 W/m 3,2 km/h (1 Bft) 100,00 %
10.04.2022 21:04 9,0 C 7,8 C 3,9 C 57 % 1020,7 hPa 0,0 l/m 0 min 0 min 0 W/m 3,2 km/h (1 Bft) 97,87 %
10.04.2022 21:06 8,9 C 7,8 C 3,9 C 57 % 1020,8 hPa 0,0 l/m 0 min 0 min 0 W/m 3,2 km/h (1 Bft) 100,00 %
10.04.2022 21:08 8,9 C 7,8 C 3,9 C 58 % 1020,8 hPa 0,0 l/m 0 min 0 min 0 W/m 3,2 km/h (1 Bft) 100,00 %
10.04.2022 21:10 8,9 C 7,8 C 3,9 C 58 % 1020,8 hPa 0,0 l/m 0 min 0 min 0 W/m 3,2 km/h (1 Bft) 100,00 %
10.04.2022 21:12 8,8 C 7,2 C 3,9 C 58 % 1020,8 hPa 0,0 l/m 0 min 0 min 0 W/m 3,2 km/h (1 Bft) 100,00 %
10.04.2022 21:14 8,8 C 7,2 C 3,9 C 59 % 1020,8 hPa 0,0 l/m 0 min 0 min 0 W/m 3,2 km/h (1 Bft) 100,00 %
10.04.2022 21:16 8,8 C 7,2 C 3,9 C 59 % 1020,8 hPa 0,0 l/m 0 min 0 min 0 W/m 3,2 km/h (1 Bft) 97,87 %
10.04.2022 21:18 8,8 C 7,2 C 3,9 C 59 % 1020,8 hPa 0,0 l/m 0 min 0 min 0 W/m 3,2 km/h (1 Bft) 100,00 %
10.04.2022 21:20 8,7 C 7,2 C 3,9 C 60 % 1020,7 hPa 0,0 l/m 0 min 0 min 0 W/m 6,4 km/h (2 Bft) 100,00 %
10.04.2022 21:22 8,7 C 7,2 C 3,9 C 60 % 1020,8 hPa 0,0 l/m 0 min 0 min 0 W/m 3,2 km/h (1 Bft) 100,00 %
10.04.2022 21:24 8,6 C 7,2 C 3,9 C 60 % 1020,8 hPa 0,0 l/m 0 min 0 min 0 W/m 6,4 km/h (2 Bft) 97,87 %
10.04.2022 21:26 8,6 C 7,2 C 3,9 C 61 % 1020,8 hPa 0,0 l/m 0 min 0 min 0 W/m 3,2 km/h (1 Bft) 97,87 %
10.04.2022 21:28 8,6 C 7,2 C 3,9 C 61 % 1020,7 hPa 0,0 l/m 0 min 0 min 0 W/m 3,2 km/h (1 Bft) 97,87 %
10.04.2022 21:30 8,5 C 7,2 C 3,3 C 61 % 1020,8 hPa 0,0 l/m 0 min 0 min 0 W/m 6,4 km/h (2 Bft) 97,83 %
10.04.2022 21:32 8,4 C 7,2 C 3,3 C 61 % 1020,8 hPa 0,0 l/m 0 min 0 min 0 W/m 6,4 km/h (2 Bft) 95,74 %
10.04.2022 21:34 8,4 C 7,2 C 3,3 C 61 % 1020,8 hPa 0,0 l/m 0 min 0 min 0 W/m 3,2 km/h (1 Bft) 97,14 %
10.04.2022 21:36 8,4 C 6,7 C 3,3 C 61 % 1020,8 hPa 0,0 l/m 0 min 0 min 0 W/m 3,2 km/h (1 Bft) 91,53 %
10.04.2022 21:38 8,3 C 6,7 C 3,3 C 62 % 1020,8 hPa 0,0 l/m 0 min 0 min 0 W/m 3,2 km/h (1 Bft) 97,87 %
10.04.2022 21:40 8,3 C 6,7 C 3,3 C 62 % 1020,8 hPa 0,0 l/m 0 min 0 min 0 W/m 3,2 km/h (1 Bft) 100,00 %
10.04.2022 21:42 8,3 C 6,7 C 3,3 C 62 % 1020,7 hPa 0,0 l/m 0 min 0 min 0 W/m 3,2 km/h (1 Bft) 97,87 %
10.04.2022 21:44 8,2 C 6,7 C 3,3 C 62 % 1020,8 hPa 0,0 l/m 0 min 0 min 0 W/m 3,2 km/h (1 Bft) 96,55 %
10.04.2022 21:46 8,2 C 6,7 C 3,3 C 62 % 1020,8 hPa 0,0 l/m 0 min 0 min 0 W/m 3,2 km/h (1 Bft) 97,14 %
10.04.2022 21:48 8,1 C 6,7 C 3,3 C 62 % 1020,8 hPa 0,0 l/m 0 min 0 min 0 W/m 3,2 km/h (1 Bft) 100,00 %
10.04.2022 21:50 8,1 C 6,7 C 3,3 C 62 % 1020,8 hPa 0,0 l/m 0 min 0 min 0 W/m 3,2 km/h (1 Bft) 98,31 %
10.04.2022 21:52 8,0 C 6,7 C 3,3 C 62 % 1020,7 hPa 0,0 l/m 0 min 0 min 0 W/m 3,2 km/h (1 Bft) 97,87 %
10.04.2022 21:54 7,9 C 6,7 C 3,3 C 62 % 1020,8 hPa 0,0 l/m 0 min 0 min 0 W/m 6,4 km/h (2 Bft) 100,00 %
10.04.2022 21:56 7,9 C 6,7 C 3,3 C 62 % 1020,8 hPa 0,0 l/m 0 min 0 min 0 W/m 3,2 km/h (1 Bft) 100,00 %
10.04.2022 21:58 7,9 C 6,7 C 3,3 C 62 % 1020,8 hPa 0,0 l/m 0 min 0 min 0 W/m 3,2 km/h (1 Bft) 100,00 %
10.04.2022 22:00 7,8 C 6,7 C 3,3 C 63 % 1020,8 hPa 0,0 l/m 0 min 0 min 0 W/m 3,2 km/h (1 Bft) 100,00 %
10.04.2022 22:02 7,8 C 6,7 C 3,3 C 63 % 1020,8 hPa 0,0 l/m 0 min 0 min 0 W/m 3,2 km/h (1 Bft) 95,92 %
10.04.2022 22:04 7,8 C 6,7 C 3,3 C 63 % 1020,8 hPa 0,0 l/m 0 min 0 min 0 W/m 3,2 km/h (1 Bft) 100,00 %
10.04.2022 22:06 7,7 C 6,1 C 2,8 C 63 % 1020,8 hPa 0,0 l/m 0 min 0 min 0 W/m 3,2 km/h (1 Bft) 100,00 %
10.04.2022 22:08 7,7 C 6,1 C 2,8 C 63 % 1020,8 hPa 0,0 l/m 0 min 0 min 0 W/m 3,2 km/h (1 Bft) 100,00 %
10.04.2022 22:10 7,7 C 6,1 C 2,8 C 63 % 1020,8 hPa 0,0 l/m 0 min 0 min 0 W/m 3,2 km/h (1 Bft) 97,87 %
10.04.2022 22:12 7,6 C 6,1 C 2,8 C 63 % 1020,8 hPa 0,0 l/m 0 min 0 min 0 W/m 0,0 km/h (0 Bft) 97,87 %
10.04.2022 22:14 7,6 C 6,1 C 2,8 C 64 % 1020,8 hPa 0,0 l/m 0 min 0 min 0 W/m 0,0 km/h (0 Bft) 97,87 %
10.04.2022 22:16 7,6 C 6,1 C 2,8 C 64 % 1020,8 hPa 0,0 l/m 0 min 0 min 0 W/m 3,2 km/h (1 Bft) 95,74 %
10.04.2022 22:18 7,6 C 6,1 C 2,2 C 64 % 1020,8 hPa 0,0 l/m 0 min 0 min 0 W/m 0,0 km/h (0 Bft) 97,87 %
10.04.2022 22:20 7,6 C 5,6 C 2,2 C 64 % 1020,8 hPa 0,0 l/m 0 min 0 min 0 W/m 0,0 km/h (0 Bft) 95,65 %
10.04.2022 22:22 7,5 C 5,6 C 2,2 C 65 % 1020,8 hPa 0,0 l/m 0 min 0 min 0 W/m 0,0 km/h (0 Bft) 97,87 %
10.04.2022 22:24 7,5 C 5,6 C 2,2 C 65 % 1020,8 hPa 0,0 l/m 0 min 0 min 0 W/m 0,0 km/h (0 Bft) 93,62 %
10.04.2022 22:26 7,4 C 5,6 C 2,2 C 65 % 1020,8 hPa 0,0 l/m 0 min 0 min 0 W/m 3,2 km/h (1 Bft) 95,74 %
10.04.2022 22:28 7,4 C 5,6 C 2,2 C 65 % 1020,8 hPa 0,0 l/m 0 min 0 min 0 W/m 3,2 km/h (1 Bft) 95,74 %
10.04.2022 22:30 7,3 C 5,6 C 2,2 C 65 % 1020,8 hPa 0,0 l/m 0 min 0 min 0 W/m 3,2 km/h (1 Bft) 93,62 %
10.04.2022 22:32 7,3 C 5,6 C 2,2 C 65 % 1020,8 hPa 0,0 l/m 0 min 0 min 0 W/m 3,2 km/h (1 Bft) 95,65 %
10.04.2022 22:34 7,2 C 5,6 C 2,2 C 65 % 1020,9 hPa 0,0 l/m 0 min 0 min 0 W/m 3,2 km/h (1 Bft) 95,74 %
10.04.2022 22:36 7,2 C 5,6 C 2,2 C 65 % 1020,8 hPa 0,0 l/m 0 min 0 min 0 W/m 3,2 km/h (1 Bft) 97,87 %
10.04.2022 22:38 7,1 C 5,6 C 2,2 C 65 % 1020,9 hPa 0,0 l/m 0 min 0 min 0 W/m 3,2 km/h (1 Bft) 95,74 %
10.04.2022 22:40 7,1 C 5,6 C 1,7 C 65 % 1020,8 hPa 0,0 l/m 0 min 0 min 0 W/m 3,2 km/h (1 Bft) 97,87 %
10.04.2022 22:42 7,1 C 5,6 C 1,7 C 66 % 1020,8 hPa 0,0 l/m 0 min 0 min 0 W/m 3,2 km/h (1 Bft) 97,87 %
10.04.2022 22:44 7,1 C 5,6 C 1,7 C 66 % 1020,8 hPa 0,0 l/m 0 min 0 min 0 W/m 0,0 km/h (0 Bft) 97,83 %
10.04.2022 22:46 7,1 C 5,6 C 1,7 C 66 % 1020,8 hPa 0,0 l/m 0 min 0 min 0 W/m 0,0 km/h (0 Bft) 98,00 %
10.04.2022 22:48 7,0 C 5,6 C 1,7 C 66 % 1020,8 hPa 0,0 l/m 0 min 0 min 0 W/m 3,2 km/h (1 Bft) 97,87 %
10.04.2022 22:50 6,9 C 5,6 C 1,7 C 66 % 1020,7 hPa 0,0 l/m 0 min 0 min 0 W/m 0,0 km/h (0 Bft) 100,00 %
10.04.2022 22:52 6,9 C 5,6 C 1,7 C 66 % 1020,7 hPa 0,0 l/m 0 min 0 min 0 W/m 3,2 km/h (1 Bft) 93,48 %
10.04.2022 22:54 6,9 C 5,6 C 1,7 C 66 % 1020,7 hPa 0,0 l/m 0 min 0 min 0 W/m 3,2 km/h (1 Bft) 95,74 %
10.04.2022 22:56 6,8 C 5,6 C 1,7 C 66 % 1020,7 hPa 0,0 l/m 0 min 0 min 0 W/m 3,2 km/h (1 Bft) 93,62 %
10.04.2022 22:58 6,8 C 5,6 C 1,7 C 66 % 1020,7 hPa 0,0 l/m 0 min 0 min 0 W/m 3,2 km/h (1 Bft) 97,87 %
10.04.2022 23:00 6,8 C 5,6 C 1,7 C 67 % 1020,7 hPa 0,0 l/m 0 min 0 min 0 W/m 3,2 km/h (1 Bft) 97,87 %
10.04.2022 23:02 6,7 C 5,0 C 1,1 C 66 % 1020,7 hPa 0,0 l/m 0 min 0 min 0 W/m 3,2 km/h (1 Bft) 95,74 %
10.04.2022 23:04 6,7 C 5,0 C 1,1 C 67 % 1020,7 hPa 0,0 l/m 0 min 0 min 0 W/m 3,2 km/h (1 Bft) 97,83 %
10.04.2022 23:06 6,7 C 5,0 C 1,1 C 67 % 1020,7 hPa 0,0 l/m 0 min 0 min 0 W/m 0,0 km/h (0 Bft) 95,74 %
10.04.2022 23:08 6,7 C 5,0 C 1,1 C 67 % 1020,7 hPa 0,0 l/m 0 min 0 min 0 W/m 0,0 km/h (0 Bft) 95,74 %
10.04.2022 23:10 6,6 C 4,4 C 1,1 C 67 % 1020,7 hPa 0,0 l/m 0 min 0 min 0 W/m 0,0 km/h (0 Bft) 95,74 %
10.04.2022 23:12 6,6 C 4,4 C 1,1 C 68 % 1020,8 hPa 0,0 l/m 0 min 0 min 0 W/m 0,0 km/h (0 Bft) 93,62 %
10.04.2022 23:14 6,6 C 4,4 C 1,1 C 68 % 1020,8 hPa 0,0 l/m 0 min 0 min 0 W/m 0,0 km/h (0 Bft) 95,74 %
10.04.2022 23:16 6,6 C 4,4 C 1,1 C 68 % 1020,8 hPa 0,0 l/m 0 min 0 min 0 W/m 0,0 km/h (0 Bft) 95,65 %
10.04.2022 23:18 6,5 C 3,9 C 0,6 C 69 % 1020,8 hPa 0,0 l/m 0 min 0 min 0 W/m 0,0 km/h (0 Bft) 95,74 %
10.04.2022 23:20 6,5 C 3,9 C 0,6 C 69 % 1020,7 hPa 0,0 l/m 0 min 0 min 0 W/m 0,0 km/h (0 Bft) 95,74 %
10.04.2022 23:22 6,4 C 4,4 C 0,6 C 69 % 1020,7 hPa 0,0 l/m 0 min 0 min 0 W/m 3,2 km/h (1 Bft) 97,87 %
10.04.2022 23:24 6,4 C 4,4 C 0,6 C 69 % 1020,7 hPa 0,0 l/m 0 min 0 min 0 W/m 3,2 km/h (1 Bft) 95,74 %
10.04.2022 23:26 6,3 C 4,4 C 0,6 C 69 % 1020,7 hPa 0,0 l/m 0 min 0 min 0 W/m 3,2 km/h (1 Bft) 95,74 %
10.04.2022 23:28 6,3 C 4,4 C 1,1 C 69 % 1020,7 hPa 0,0 l/m 0 min 0 min 0 W/m 3,2 km/h (1 Bft) 97,83 %
10.04.2022 23:30 6,2 C 4,4 C 1,1 C 69 % 1020,7 hPa 0,0 l/m 0 min 0 min 0 W/m 3,2 km/h (1 Bft) 97,87 %
10.04.2022 23:32 6,2 C 4,4 C 1,1 C 69 % 1020,7 hPa 0,0 l/m 0 min 0 min 0 W/m 3,2 km/h (1 Bft) 97,87 %
10.04.2022 23:34 6,1 C 5,0 C 1,1 C 69 % 1020,7 hPa 0,0 l/m 0 min 0 min 0 W/m 3,2 km/h (1 Bft) 93,62 %
10.04.2022 23:36 6,1 C 5,0 C 1,1 C 70 % 1020,7 hPa 0,0 l/m 0 min 0 min 0 W/m 3,2 km/h (1 Bft) 97,87 %
10.04.2022 23:38 6,1 C 5,0 C 1,1 C 70 % 1020,7 hPa 0,0 l/m 0 min 0 min 0 W/m 3,2 km/h (1 Bft) 100,00 %
10.04.2022 23:40 6,0 C 5,0 C 1,1 C 70 % 1020,7 hPa 0,0 l/m 0 min 0 min 0 W/m 3,2 km/h (1 Bft) 100,00 %
10.04.2022 23:42 6,0 C 5,0 C 1,1 C 70 % 1020,7 hPa 0,0 l/m 0 min 0 min 0 W/m 3,2 km/h (1 Bft) 100,00 %
10.04.2022 23:44 5,9 C 4,4 C 1,1 C 70 % 1020,7 hPa 0,0 l/m 0 min 0 min 0 W/m 3,2 km/h (1 Bft) 93,62 %
10.04.2022 23:46 5,9 C 4,4 C 0,6 C 70 % 1020,7 hPa 0,0 l/m 0 min 0 min 0 W/m 3,2 km/h (1 Bft) 97,87 %
10.04.2022 23:48 5,9 C 4,4 C 1,1 C 70 % 1020,7 hPa 0,0 l/m 0 min 0 min 0 W/m 3,2 km/h (1 Bft) 97,87 %
10.04.2022 23:50 5,9 C 4,4 C 1,1 C 71 % 1020,6 hPa 0,0 l/m 0 min 0 min 0 W/m 3,2 km/h (1 Bft) 97,87 %
10.04.2022 23:52 5,8 C 4,4 C 1,1 C 71 % 1020,6 hPa 0,0 l/m 0 min 0 min 0 W/m 3,2 km/h (1 Bft) 97,83 %
10.04.2022 23:54 5,8 C 4,4 C 1,1 C 71 % 1020,6 hPa 0,0 l/m 0 min 0 min 0 W/m 3,2 km/h (1 Bft) 97,87 %
10.04.2022 23:56 5,8 C 4,4 C 1,1 C 71 % 1020,6 hPa 0,0 l/m 0 min 0 min 0 W/m 3,2 km/h (1 Bft) 97,87 %
10.04.2022 23:58 5,8 C 4,4 C 1,1 C 71 % 1020,6 hPa 0,0 l/m 0 min 0 min 0 W/m 0,0 km/h (0 Bft) 98,00 %
_ Min-Zeit 07:30 06:58 07:18 18:08 00:00 - - - - 01:44 08:30
Minimum _ 0,7 C -0,6 C -3,3 C 44 % 1017,6 hPa - - - - 0,0 km/h (0 Bft) 54,35 %
_ Max-Zeit 16:04 16:04 12:44 08:18 11:04 00:00 09:59 00:00 13:24 14:00 00:00
Maximum _ 14,1 C 21,7 C 12,2 C 93 % 1021,8 hPa 0,0 l/m 5 min 0 min 1005 W/m 29,0 km/h
N-NO (5 Bft)
100,00 %
Durchschnitt _ 7,1 C 8,0 C 3,0 C 71 % 1020,3 hPa #0,0 l/m #7:37 h #0 min. 371 W/m 7,7 km/h (2 Bft) 97,29 %
© 2022 W. Hausmann